Observation data for Lesley on 02/14/2018      Previous  Date  Next       Current Mesonet Observations  Soil Data  Daily Summary Page  Observations in Plain Language
KLE1 140600Z 07005KT 05/01 A3022 RMK A01 T00520014  RH  076%=      5-min Rain = 0
KLE1 140601Z 06005KT 05/01 A3022 RMK A01 T00520014  RH  076%=      5-min Rain = 0
KLE1 140602Z 05006KT 05/01 A3022 RMK A01 T00520014  RH  076%=      5-min Rain = 0
KLE1 140603Z 06006KT 05/01 A3022 RMK A01 T00520014  RH  076%=      5-min Rain = 0
KLE1 140604Z 06007KT 05/01 A3021 RMK A01 T00520014  RH  077%=      5-min Rain = 0
KLE1 140605Z 06007KT 05/02 A3021 RMK A01 T00520015  RH  077%=      5-min Rain = 0
KLE1 140606Z 07008KT 05/02 A3021 RMK A01 T00520015  RH  077%=      5-min Rain = 0
KLE1 140607Z 07007KT 05/02 A3021 RMK A01 T00520015  RH  077%=      5-min Rain = 0
KLE1 140608Z 07007KT 05/02 A3021 RMK A01 T00530016  RH  077%=      5-min Rain = 0
KLE1 140609Z 07007KT 05/02 A3021 RMK A01 T00530016  RH  077%=      5-min Rain = 0
KLE1 140610Z 08007KT 05/02 A3021 RMK A01 T00530016  RH  077%=      5-min Rain = 0
KLE1 140611Z 08006KT 05/02 A3021 RMK A01 T00530016  RH  077%=      5-min Rain = 0
KLE1 140612Z 08006KT 05/02 A3021 RMK A01 T00530016  RH  077%=      5-min Rain = 0
KLE1 140613Z 08006KT 05/02 A3021 RMK A01 T00530016  RH  077%=      5-min Rain = 0
KLE1 140614Z 08006KT 05/02 A3021 RMK A01 T00530016  RH  077%=      5-min Rain = 0
KLE1 140615Z 09005KT 05/02 A3021 RMK A01 T00540017  RH  077%=      5-min Rain = 0
KLE1 140616Z 08005KT 05/02 A3021 RMK A01 T00540016  RH  077%=      5-min Rain = 0
KLE1 140617Z 08006KT 05/02 A3021 RMK A01 T00540016  RH  077%=      5-min Rain = 0
KLE1 140618Z 08006KT 05/02 A3021 RMK A01 T00530016  RH  077%=      5-min Rain = 0
KLE1 140619Z 08006KT 05/02 A3021 RMK A01 T00530017  RH  077%=      5-min Rain = 0
KLE1 140620Z 07005KT 05/02 A3021 RMK A01 T00540018  RH  078%=      5-min Rain = 0
KLE1 140621Z 07004KT 06/02 A3021 RMK A01 T00550018  RH  077%=      5-min Rain = 0
KLE1 140622Z 07004KT 06/02 A3021 RMK A01 T00550017  RH  077%=      5-min Rain = 0
KLE1 140623Z 06004KT 05/02 A3021 RMK A01 T00540017  RH  077%=      5-min Rain = 0
KLE1 140624Z 07004KT 05/02 A3021 RMK A01 T00540017  RH  077%=      5-min Rain = 0
KLE1 140625Z 07005KT 05/02 A3021 RMK A01 T00540018  RH  077%=      5-min Rain = 0
KLE1 140626Z 07005KT 05/02 A3021 RMK A01 T00540018  RH  078%=      5-min Rain = 0
KLE1 140627Z 07004KT 05/02 A3021 RMK A01 T00540019  RH  078%=      5-min Rain = 0
KLE1 140628Z 06004KT 06/02 A3021 RMK A01 T00550019  RH  078%=      5-min Rain = 0
KLE1 140629Z 06004KT 06/02 A3021 RMK A01 T00550019  RH  078%=      5-min Rain = 0
KLE1 140630Z 06004KT 06/02 A302 RMK A01 T00560020  RH  078%=      5-min Rain = 0
KLE1 140631Z 06004KT 06/02 A302 RMK A01 T00560019  RH  077%=      5-min Rain = 0
KLE1 140632Z 06004KT 06/02 A302 RMK A01 T00560020  RH  077%=      5-min Rain = 0
KLE1 140633Z 05004KT 06/02 A3021 RMK A01 T00560020  RH  077%=      5-min Rain = 0
KLE1 140634Z 05004KT 06/02 A3021 RMK A01 T00560020  RH  078%=      5-min Rain = 0
KLE1 140635Z 05004KT 06/02 A3021 RMK A01 T00560021  RH  078%=      5-min Rain = 0
KLE1 140636Z 04004KT 06/02 A3021 RMK A01 T00570021  RH  078%=      5-min Rain = 0
KLE1 140637Z 02004KT 06/02 A3021 RMK A01 T00570021  RH  077%=      5-min Rain = 0
KLE1 140638Z 02004KT 06/02 A3021 RMK A01 T00570020  RH  077%=      5-min Rain = 0
KLE1 140639Z 01004KT 06/02 A3021 RMK A01 T00570019  RH  077%=      5-min Rain = 0
KLE1 140640Z 01004KT 06/02 A3021 RMK A01 T00570019  RH  077%=      5-min Rain = 0
KLE1 140641Z 02004KT 06/02 A3021 RMK A01 T00550016  RH  076%=      5-min Rain = 0
KLE1 140642Z 03004KT 05/02 A3021 RMK A01 T00530015  RH  076%=      5-min Rain = 0
KLE1 140643Z 04004KT 05/02 A302 RMK A01 T00520015  RH  077%=      5-min Rain = 0
KLE1 140644Z 05004KT 05/02 A302 RMK A01 T00520017  RH  078%=      5-min Rain = 0
KLE1 140645Z 05004KT 05/02 A302 RMK A01 T00520017  RH  078%=      5-min Rain = 0
KLE1 140646Z 06004KT 05/02 A302 RMK A01 T00520018  RH  079%=      5-min Rain = 0
KLE1 140647Z 05004KT 05/02 A302 RMK A01 T00530019  RH  079%=      5-min Rain = 0
KLE1 140648Z 06003KT 05/02 A302 RMK A01 T00540021  RH  079%=      5-min Rain = 0
KLE1 140649Z 06004KT 06/02 A302 RMK A01 T00560022  RH  079%=      5-min Rain = 0
KLE1 140650Z 05004KT 06/02 A302 RMK A01 T00570022  RH  078%=      5-min Rain = 0
KLE1 140651Z 05004KT 06/02 A302 RMK A01 T00580021  RH  077%=      5-min Rain = 0
KLE1 140652Z 04004KT 06/02 A302 RMK A01 T00570020  RH  077%=      5-min Rain = 0
KLE1 140653Z 04004KT 06/02 A302 RMK A01 T00560020  RH  077%=      5-min Rain = 0
KLE1 140654Z 04004KT 06/02 A302 RMK A01 T00560020  RH  078%=      5-min Rain = 0
KLE1 140655Z 05004KT 06/02 A302 RMK A01 T00560020  RH  078%=      5-min Rain = 0
KLE1 140656Z 06004KT 06/02 A302 RMK A01 T00560020  RH  078%=      5-min Rain = 0
KLE1 140657Z 07004KT 06/02 A302 RMK A01 T00560021  RH  078%=      5-min Rain = 0
KLE1 140658Z 07004KT 06/02 A302 RMK A01 T00560020  RH  078%=      5-min Rain = 0
KLE1 140659Z 07003KT 06/02 A302 RMK A01 T00560020  RH  078%=      5-min Rain = 0
KLE1 140700Z 07003KT 06/02 A302 RMK A01 T00570021  RH  078%=      5-min Rain = 0
KLE1 140701Z 07002KT 06/02 A302 RMK A01 T00570021  RH  078%=      5-min Rain = 0
KLE1 140702Z 07003KT 06/02 A302 RMK A01 T00580023  RH  078%=      5-min Rain = 0
KLE1 140703Z 07003KT 06/02 A302 RMK A01 T00590023  RH  078%=      5-min Rain = 0
KLE1 140704Z 07003KT 06/02 A302 RMK A01 T00600023  RH  077%=      5-min Rain = 0
KLE1 140705Z 07003KT 06/02 A302 RMK A01 T00600022  RH  077%=      5-min Rain = 0
KLE1 140706Z 07004KT 06/02 A302 RMK A01 T00600022  RH  076%=      5-min Rain = 0
KLE1 140707Z 06004KT 06/02 A302 RMK A01 T00600022  RH  077%=      5-min Rain = 0
KLE1 140708Z 06004KT 06/02 A302 RMK A01 T00590021  RH  076%=      5-min Rain = 0
KLE1 140709Z 05004KT 06/02 A302 RMK A01 T00570019  RH  076%=      5-min Rain = 0
KLE1 140710Z 06005KT 06/02 A302 RMK A01 T00560018  RH  077%=      5-min Rain = 0
KLE1 140711Z 06005KT 05/02 A302 RMK A01 T00540017  RH  077%=      5-min Rain = 0
KLE1 140712Z 06005KT 05/02 A302 RMK A01 T00540018  RH  078%=      5-min Rain = 0
KLE1 140713Z 05005KT 05/02 A302 RMK A01 T00540018  RH  078%=      5-min Rain = 0
KLE1 140714Z 05005KT 05/02 A302 RMK A01 T00530017  RH  078%=      5-min Rain = 0
KLE1 140715Z 06005KT 05/02 A302 RMK A01 T00530017  RH  078%=      5-min Rain = 0
KLE1 140716Z 06005KT 05/02 A302 RMK A01 T00520017  RH  078%=      5-min Rain = 0
KLE1 140717Z 06005KT 05/02 A302 RMK A01 T00520017  RH  078%=      5-min Rain = 0
KLE1 140718Z 07004KT 05/02 A302 RMK A01 T00510017  RH  079%=      5-min Rain = 0
KLE1 140719Z 07004KT 05/02 A302 RMK A01 T00510017  RH  079%=      5-min Rain = 0
KLE1 140720Z 07004KT 05/02 A302 RMK A01 T00510017  RH  079%=      5-min Rain = 0
KLE1 140721Z 07004KT 05/02 A302 RMK A01 T00520018  RH  079%=      5-min Rain = 0
KLE1 140722Z 07004KT 05/02 A302 RMK A01 T00520018  RH  079%=      5-min Rain = 0
KLE1 140723Z 07004KT 05/02 A302 RMK A01 T00520019  RH  079%=      5-min Rain = 0
KLE1 140724Z 07003KT 05/02 A302 RMK A01 T00530020  RH  079%=      5-min Rain = 0
KLE1 140725Z 07003KT 05/02 A302 RMK A01 T00530020  RH  079%=      5-min Rain = 0
KLE1 140726Z 06003KT 05/02 A302 RMK A01 T00540020  RH  079%=      5-min Rain = 0
KLE1 140727Z 06003KT 05/02 A302 RMK A01 T00540020  RH  079%=      5-min Rain = 0
KLE1 140728Z 06003KT 06/02 A302 RMK A01 T00550021  RH  079%=      5-min Rain = 0
KLE1 140729Z 07003KT 06/02 A302 RMK A01 T00550021  RH  079%=      5-min Rain = 0
KLE1 140730Z 08004KT 06/02 A302 RMK A01 T00560022  RH  079%=      5-min Rain = 0
KLE1 140731Z 09004KT 06/02 A302 RMK A01 T00570021  RH  078%=      5-min Rain = 0
KLE1 140732Z 10004KT 06/02 A302 RMK A01 T00570021  RH  078%=      5-min Rain = 0
KLE1 140733Z 10003KT 06/02 A302 RMK A01 T00560021  RH  078%=      5-min Rain = 0
KLE1 140734Z 19003KT 06/02 A302 RMK A01 T00560019  RH  077%=      5-min Rain = 0
KLE1 140735Z 18002KT 05/01 A302 RMK A01 T00520013  RH  076%=      5-min Rain = 0
KLE1 140736Z 21002KT 05/01 A302 RMK A01 T00490011  RH  076%=      5-min Rain = 0
KLE1 140737Z 23003KT 04/01 A302 RMK A01 T00440006  RH  076%=      5-min Rain = 0
KLE1 140738Z 23002KT 04/01 A302 RMK A01 T00410005  RH  077%=      5-min Rain = 0
KLE1 140739Z 26003KT 04/01 A302 RMK A01 T00400005  RH  078%=      5-min Rain = 0
KLE1 140740Z 27003KT 04/00 A302 RMK A01 T00370003  RH  078%=      5-min Rain = 0
KLE1 140741Z 28003KT 04/00 A302 RMK A01 T00360003  RH  079%=      5-min Rain = 0
KLE1 140742Z 28004KT 04/00 A302 RMK A01 T00350002  RH  079%=      5-min Rain = 0
KLE1 140743Z 28004KT 03/00 A302 RMK A01 T00340000  RH  079%=      5-min Rain = 0
KLE1 140744Z 28003KT 03/00 A302 RMK A01 T003300-0  RH  079%=      5-min Rain = 0
KLE1 140745Z 27003KT 03/00 A302 RMK A01 T003200-0  RH  079%=      5-min Rain = 0
KLE1 140746Z 27004KT 03/00 A302 RMK A01 T00320002  RH  080%=      5-min Rain = 0
KLE1 140747Z 26004KT 03/00 A302 RMK A01 T00330003  RH  081%=      5-min Rain = 0
KLE1 140748Z 26004KT 03/00 A302 RMK A01 T00340003  RH  080%=      5-min Rain = 0
KLE1 140749Z 26004KT 03/00 A302 RMK A01 T00340003  RH  080%=      5-min Rain = 0
KLE1 140750Z 26004KT 03/00 A302 RMK A01 T00340004  RH  081%=      5-min Rain = 0
KLE1 140751Z 26003KT 03/01 A302 RMK A01 T00340005  RH  081%=      5-min Rain = 0
KLE1 140752Z 27003KT 04/01 A302 RMK A01 T00350006  RH  081%=      5-min Rain = 0
KLE1 140753Z 27003KT 04/01 A302 RMK A01 T00350007  RH  081%=      5-min Rain = 0
KLE1 140754Z 28003KT 04/01 A3019 RMK A01 T00360007  RH  082%=      5-min Rain = 0
KLE1 140755Z 28002KT 04/01 A3019 RMK A01 T00360007  RH  081%=      5-min Rain = 0
KLE1 140756Z 28001KT 04/01 A3019 RMK A01 T00360007  RH  081%=      5-min Rain = 0
KLE1 140757Z 28001KT 04/01 A3019 RMK A01 T00370007  RH  081%=      5-min Rain = 0
KLE1 140758Z 26001KT 04/01 A3019 RMK A01 T00370007  RH  081%=      5-min Rain = 0
KLE1 140759Z 25001KT 04/01 A3018 RMK A01 T00370007  RH  081%=      5-min Rain = 0
KLE1 140800Z 25001KT 04/01 A3018 RMK A01 T00380008  RH  081%=      5-min Rain = 0
KLE1 140801Z 26001KT 04/01 A3019 RMK A01 T00380008  RH  081%=      5-min Rain = 0
KLE1 140802Z 28001KT 04/01 A3019 RMK A01 T00390010  RH  081%=      5-min Rain = 0
KLE1 140803Z 29003KT 04/01 A3019 RMK A01 T00400011  RH  081%=      5-min Rain = 0
KLE1 140804Z 30003KT 04/01 A3019 RMK A01 T00410010  RH  080%=      5-min Rain = 0
KLE1 140805Z 30004KT 04/01 A3019 RMK A01 T00410009  RH  080%=      5-min Rain = 0
KLE1 140806Z 30003KT 04/01 A3019 RMK A01 T00400008  RH  079%=      5-min Rain = 0
KLE1 140807Z 30003KT 04/01 A3019 RMK A01 T00390007  RH  079%=      5-min Rain = 0
KLE1 140808Z 29003KT 04/01 A3019 RMK A01 T00390008  RH  080%=      5-min Rain = 0
KLE1 140809Z 30003KT 04/01 A3019 RMK A01 T00390009  RH  081%=      5-min Rain = 0
KLE1 140810Z 29003KT 04/01 A3019 RMK A01 T00380009  RH  081%=      5-min Rain = 0
KLE1 140811Z 29003KT 04/01 A3019 RMK A01 T00380009  RH  082%=      5-min Rain = 0
KLE1 140812Z 29003KT 04/01 A3019 RMK A01 T00380010  RH  082%=      5-min Rain = 0
KLE1 140813Z 29003KT 04/01 A3019 RMK A01 T00380011  RH  082%=      5-min Rain = 0
KLE1 140814Z 30004KT 04/01 A3019 RMK A01 T00380012  RH  083%=      5-min Rain = 0
KLE1 140815Z 30004KT 04/01 A3019 RMK A01 T00380013  RH  083%=      5-min Rain = 0
KLE1 140816Z 30003KT 04/01 A3019 RMK A01 T00380013  RH  083%=      5-min Rain = 0
KLE1 140817Z 30003KT 04/01 A3019 RMK A01 T00390013  RH  084%=      5-min Rain = 0
KLE1 140818Z 29002KT 04/01 A3019 RMK A01 T00390014  RH  084%=      5-min Rain = 0
KLE1 140819Z 29002KT 04/01 A3019 RMK A01 T00390014  RH  084%=      5-min Rain = 0
KLE1 140820Z 29002KT 04/01 A3019 RMK A01 T00390014  RH  084%=      5-min Rain = 0
KLE1 140821Z 28002KT 04/02 A3019 RMK A01 T00400015  RH  084%=      5-min Rain = 0
KLE1 140822Z 28002KT 04/02 A3019 RMK A01 T00410016  RH  084%=      5-min Rain = 0
KLE1 140823Z 27001KT 04/02 A3019 RMK A01 T00410017  RH  084%=      5-min Rain = 0
KLE1 140824Z 26001KT 04/02 A3019 RMK A01 T00420017  RH  084%=      5-min Rain = 0
KLE1 140825Z 26001KT 04/02 A3019 RMK A01 T00430018  RH  084%=      5-min Rain = 0
KLE1 140826Z 26001KT 05/02 A3019 RMK A01 T00450019  RH  083%=      5-min Rain = 0
KLE1 140827Z 26002KT 05/02 A3019 RMK A01 T00460020  RH  083%=      5-min Rain = 0
KLE1 140828Z 26002KT 05/02 A3019 RMK A01 T00470019  RH  082%=      5-min Rain = 0
KLE1 140829Z 26002KT 05/02 A3019 RMK A01 T00480020  RH  082%=      5-min Rain = 0
KLE1 140830Z 27002KT 05/02 A3019 RMK A01 T00490020  RH  082%=      5-min Rain = 0
KLE1 140831Z 27002KT 05/02 A3018 RMK A01 T00490020  RH  081%=      5-min Rain = 0
KLE1 140832Z 27002KT 05/02 A3018 RMK A01 T00500019  RH  081%=      5-min Rain = 0
KLE1 140833Z 27001KT 05/02 A3018 RMK A01 T00500018  RH  080%=      5-min Rain = 0
KLE1 140834Z 26002KT 05/02 A3018 RMK A01 T00490017  RH  080%=      5-min Rain = 0
KLE1 140835Z 26001KT 05/02 A3018 RMK A01 T00470016  RH  080%=      5-min Rain = 0
KLE1 140836Z 26002KT 05/02 A3018 RMK A01 T00470017  RH  081%=      5-min Rain = 0
KLE1 140837Z 26001KT 05/02 A3018 RMK A01 T00460017  RH  081%=      5-min Rain = 0
KLE1 140838Z 26001KT 05/02 A3018 RMK A01 T00470018  RH  082%=      5-min Rain = 0
KLE1 140839Z 26001KT 05/02 A3018 RMK A01 T00470019  RH  082%=      5-min Rain = 0
KLE1 140840Z 25001KT 05/02 A3018 RMK A01 T00470020  RH  082%=      5-min Rain = 0
KLE1 140841Z 25001KT 05/02 A3018 RMK A01 T00480020  RH  082%=      5-min Rain = 0
KLE1 140842Z 23001KT 05/02 A3018 RMK A01 T00480020  RH  082%=      5-min Rain = 0
KLE1 140843Z 23001KT 05/02 A3018 RMK A01 T00490020  RH  082%=      5-min Rain = 0
KLE1 140844Z 23001KT 05/02 A3018 RMK A01 T00490020  RH  081%=      5-min Rain = 0
KLE1 140845Z 26000KT 05/02 A3018 RMK A01 T00490020  RH  081%=      5-min Rain = 0
KLE1 140846Z 28000KT 05/02 A3018 RMK A01 T00500021  RH  082%=      5-min Rain = 0
KLE1 140847Z 30001KT 05/02 A3018 RMK A01 T00500020  RH  081%=      5-min Rain = 0
KLE1 140848Z 30002KT 05/02 A3018 RMK A01 T00500018  RH  080%=      5-min Rain = 0
KLE1 140849Z 30002KT 05/01 A3018 RMK A01 T00470010  RH  077%=      5-min Rain = 0
KLE1 140850Z 31002KT 04/01 A3018 RMK A01 T00420005  RH  077%=      5-min Rain = 0
KLE1 140851Z 32001KT 04/00 A3018 RMK A01 T00390003  RH  077%=      5-min Rain = 0
KLE1 140852Z 32001KT 04/00 A3018 RMK A01 T00370002  RH  078%=      5-min Rain = 0
KLE1 140853Z 32001KT 04/00 A3018 RMK A01 T00350002  RH  079%=      5-min Rain = 0
KLE1 140854Z 32001KT 03/00 A3018 RMK A01 T00330002  RH  080%=      5-min Rain = 0
KLE1 140855Z 33000KT 03/00 A3017 RMK A01 T00320001  RH  080%=      5-min Rain = 0
KLE1 140856Z 00000KT 03/00 A3017 RMK A01 T00320001  RH  080%=      5-min Rain = 0
KLE1 140857Z 00000KT 03/00 A3017 RMK A01 T00310001  RH  081%=      5-min Rain = 0
KLE1 140858Z 09000KT 03/00 A3017 RMK A01 T00310001  RH  081%=      5-min Rain = 0
KLE1 140859Z 09001KT 03/00 A3017 RMK A01 T00310004  RH  082%=      5-min Rain = 0
KLE1 140900Z 11001KT 03/00 A3017 RMK A01 T00300004  RH  083%=      5-min Rain = 0
KLE1 140901Z 11000KT 03/00 A3018 RMK A01 T00300003  RH  082%=      5-min Rain = 0
KLE1 140902Z 11000KT 03/00 A3018 RMK A01 T00300002  RH  082%=      5-min Rain = 0
KLE1 140903Z 00000KT 03/00 A3018 RMK A01 T00290002  RH  082%=      5-min Rain = 0
KLE1 140904Z 00000KT 03/00 A3018 RMK A01 T00290001  RH  082%=      5-min Rain = 0
KLE1 140905Z 14000KT 03/00 A3018 RMK A01 T00290001  RH  082%=      5-min Rain = 0
KLE1 140906Z 13001KT 03/00 A3017 RMK A01 T00280000  RH  082%=      5-min Rain = 0
KLE1 140907Z 13001KT 03/00 A3017 RMK A01 T00280000  RH  082%=      5-min Rain = 0
KLE1 140908Z 12001KT 03/M00 A3017 RMK A01 T00281001  RH  082%=      5-min Rain = 0
KLE1 140909Z 12001KT 03/00 A3017 RMK A01 T002800-0  RH  082%=      5-min Rain = 0
KLE1 140910Z 13001KT 03/M00 A3018 RMK A01 T00271001  RH  082%=      5-min Rain = 0
KLE1 140911Z 13001KT 03/00 A3018 RMK A01 T002800-0  RH  082%=      5-min Rain = 0
KLE1 140912Z 13001KT 03/M00 A3018 RMK A01 T00271001  RH  082%=      5-min Rain = 0
KLE1 140913Z 14001KT 03/M00 A3018 RMK A01 T00271001  RH  082%=      5-min Rain = 0
KLE1 140914Z 15001KT 03/00 A3018 RMK A01 T002700-0  RH  082%=      5-min Rain = 0
KLE1 140915Z 16001KT 03/00 A3018 RMK A01 T00270001  RH  083%=      5-min Rain = 0
KLE1 140916Z 16000KT 03/00 A3018 RMK A01 T00270000  RH  083%=      5-min Rain = 0
KLE1 140917Z 16000KT 03/00 A3018 RMK A01 T00260002  RH  084%=      5-min Rain = 0
KLE1 140918Z 00000KT 03/00 A3017 RMK A01 T00260002  RH  084%=      5-min Rain = 0
KLE1 140919Z 00000KT 03/00 A3017 RMK A01 T00260001  RH  084%=      5-min Rain = 0
KLE1 140920Z 00000KT 03/00 A3017 RMK A01 T00260000  RH  083%=      5-min Rain = 0
KLE1 140921Z 32000KT 03/00 A3017 RMK A01 T002600-0  RH  083%=      5-min Rain = 0
KLE1 140922Z 32001KT 03/M00 A3017 RMK A01 T00261001  RH  082%=      5-min Rain = 0
KLE1 140923Z 34002KT 03/M00 A3017 RMK A01 T00261002  RH  082%=      5-min Rain = 0
KLE1 140924Z 35002KT 03/M00 A3017 RMK A01 T00251003  RH  082%=      5-min Rain = 0
KLE1 140925Z 00001KT 03/M00 A3017 RMK A01 T00251004  RH  081%=      5-min Rain = 0
KLE1 140926Z 04001KT 02/M01 A3017 RMK A01 T00241005  RH  081%=      5-min Rain = 0
KLE1 140927Z 06002KT 02/M00 A3017 RMK A01 T00241004  RH  081%=      5-min Rain = 0
KLE1 140928Z 06002KT 02/M00 A3017 RMK A01 T00241004  RH  081%=      5-min Rain = 0
KLE1 140929Z 07003KT 02/M00 A3017 RMK A01 T00241003  RH  082%=      5-min Rain = 0
KLE1 140930Z 07003KT 03/00 A3017 RMK A01 T002500-0  RH  083%=      5-min Rain = 0
KLE1 140931Z 07003KT 03/M00 A3017 RMK A01 T00261001  RH  083%=      5-min Rain = 0
KLE1 140932Z 07003KT 03/00 A3017 RMK A01 T002600-0  RH  083%=      5-min Rain = 0
KLE1 140933Z 07003KT 03/00 A3016 RMK A01 T00260000  RH  083%=      5-min Rain = 0
KLE1 140934Z 06003KT 03/00 A3016 RMK A01 T00270001  RH  083%=      5-min Rain = 0
KLE1 140935Z 06003KT 03/00 A3016 RMK A01 T00270001  RH  083%=      5-min Rain = 0
KLE1 140936Z 07003KT 03/00 A3016 RMK A01 T00270002  RH  083%=      5-min Rain = 0
KLE1 140937Z 07003KT 03/00 A3016 RMK A01 T00270003  RH  084%=      5-min Rain = 0
KLE1 140938Z 06002KT 03/00 A3016 RMK A01 T00270003  RH  084%=      5-min Rain = 0
KLE1 140939Z 05002KT 03/01 A3016 RMK A01 T00270005  RH  085%=      5-min Rain = 0
KLE1 140940Z 06002KT 03/01 A3016 RMK A01 T00270007  RH  087%=      5-min Rain = 0
KLE1 140941Z 06002KT 03/01 A3016 RMK A01 T00270008  RH  087%=      5-min Rain = 0
KLE1 140942Z 06002KT 03/01 A3016 RMK A01 T00280010  RH  088%=      5-min Rain = 0
KLE1 140943Z 06003KT 03/01 A3016 RMK A01 T00290011  RH  088%=      5-min Rain = 0
KLE1 140944Z 05003KT 03/01 A3016 RMK A01 T00290012  RH  088%=      5-min Rain = 0
KLE1 140945Z 05003KT 03/01 A3016 RMK A01 T00300012  RH  088%=      5-min Rain = 0
KLE1 140946Z 05003KT 03/01 A3016 RMK A01 T00300011  RH  088%=      5-min Rain = 0
KLE1 140947Z 05003KT 03/01 A3016 RMK A01 T00300011  RH  087%=      5-min Rain = 0
KLE1 140948Z 05003KT 03/01 A3016 RMK A01 T00300011  RH  087%=      5-min Rain = 0
KLE1 140949Z 05003KT 03/01 A3017 RMK A01 T00310012  RH  088%=      5-min Rain = 0
KLE1 140950Z 05003KT 03/01 A3016 RMK A01 T00320014  RH  088%=      5-min Rain = 0
KLE1 140951Z 05003KT 03/02 A3016 RMK A01 T00330015  RH  088%=      5-min Rain = 0
KLE1 140952Z 05003KT 03/02 A3016 RMK A01 T00330015  RH  088%=      5-min Rain = 0
KLE1 140953Z 05003KT 03/02 A3016 RMK A01 T00340016  RH  088%=      5-min Rain = 0
KLE1 140954Z 05003KT 03/02 A3016 RMK A01 T00340015  RH  088%=      5-min Rain = 0
KLE1 140955Z 06003KT 03/02 A3016 RMK A01 T00340015  RH  087%=      5-min Rain = 0
KLE1 140956Z 06002KT 04/02 A3016 RMK A01 T00350016  RH  087%=      5-min Rain = 0
KLE1 140957Z 06002KT 04/02 A3016 RMK A01 T00350016  RH  087%=      5-min Rain = 0
KLE1 140958Z 06002KT 04/02 A3016 RMK A01 T00360017  RH  087%=      5-min Rain = 0
KLE1 140959Z 05002KT 04/02 A3017 RMK A01 T00370017  RH  087%=      5-min Rain = 0
KLE1 141000Z 05002KT 04/02 A3017 RMK A01 T00380018  RH  087%=      5-min Rain = 0
KLE1 141001Z 05001KT 04/02 A3017 RMK A01 T00390018  RH  086%=      5-min Rain = 0
KLE1 141002Z 06001KT 04/02 A3017 RMK A01 T00390018  RH  086%=      5-min Rain = 0
KLE1 141003Z 06000KT 04/02 A3017 RMK A01 T00400019  RH  086%=      5-min Rain = 0
KLE1 141004Z 00000KT 04/02 A3017 RMK A01 T00400020  RH  086%=      5-min Rain = 0
KLE1 141005Z 00000KT 04/02 A3017 RMK A01 T00400018  RH  086%=      5-min Rain = 0
KLE1 141006Z 30000KT 04/01 A3017 RMK A01 T00370011  RH  083%=      5-min Rain = 0
KLE1 141007Z 31001KT 04/01 A3017 RMK A01 T00350010  RH  084%=      5-min Rain = 0
KLE1 141008Z 32002KT 03/00 A3017 RMK A01 T00310000  RH  080%=      5-min Rain = 0
KLE1 141009Z 32002KT 03/M01 A3017 RMK A01 T00261009  RH  078%=      5-min Rain = 0
KLE1 141010Z 33002KT 02/M01 A3017 RMK A01 T00221012  RH  078%=      5-min Rain = 0
KLE1 141011Z 34002KT 02/M01 A3017 RMK A01 T00201012  RH  079%=      5-min Rain = 0
KLE1 141012Z 34002KT 02/M01 A3017 RMK A01 T00181010  RH  082%=      5-min Rain = 0
KLE1 141013Z 35002KT 02/M01 A3016 RMK A01 T00181007  RH  083%=      5-min Rain = 0
KLE1 141014Z 35002KT 02/M01 A3016 RMK A01 T00191005  RH  084%=      5-min Rain = 0
KLE1 141015Z 35001KT 02/M00 A3017 RMK A01 T00201003  RH  085%=      5-min Rain = 0
KLE1 141016Z 35002KT 02/M00 A3017 RMK A01 T00211003  RH  084%=      5-min Rain = 0
KLE1 141017Z 34002KT 02/M01 A3017 RMK A01 T00221006  RH  082%=      5-min Rain = 0
KLE1 141018Z 34003KT 02/M01 A3017 RMK A01 T00211006  RH  082%=      5-min Rain = 0
KLE1 141019Z 34002KT 02/M01 A3017 RMK A01 T00221005  RH  083%=      5-min Rain = 0
KLE1 141020Z 33003KT 02/M00 A3017 RMK A01 T00211004  RH  084%=      5-min Rain = 0
KLE1 141021Z 33003KT 02/M00 A3017 RMK A01 T00211003  RH  084%=      5-min Rain = 0
KLE1 141022Z 33003KT 02/M00 A3016 RMK A01 T00211003  RH  084%=      5-min Rain = 0
KLE1 141023Z 34003KT 02/M00 A3016 RMK A01 T00211002  RH  084%=      5-min Rain = 0
KLE1 141024Z 34003KT 02/M00 A3016 RMK A01 T00211001  RH  085%=      5-min Rain = 0
KLE1 141025Z 34003KT 02/M00 A3016 RMK A01 T00221001  RH  085%=      5-min Rain = 0
KLE1 141026Z 35003KT 02/00 A3016 RMK A01 T002200-0  RH  086%=      5-min Rain = 0
KLE1 141027Z 36003KT 02/00 A3016 RMK A01 T00220000  RH  085%=      5-min Rain = 0
KLE1 141028Z 00002KT 02/00 A3016 RMK A01 T00230003  RH  087%=      5-min Rain = 0
KLE1 141029Z 00002KT 02/01 A3016 RMK A01 T00240005  RH  087%=      5-min Rain = 0
KLE1 141030Z 01002KT 03/01 A3016 RMK A01 T00250006  RH  087%=      5-min Rain = 0
KLE1 141031Z 02001KT 03/01 A3016 RMK A01 T00250006  RH  087%=      5-min Rain = 0
KLE1 141032Z 04002KT 03/01 A3016 RMK A01 T00260008  RH  088%=      5-min Rain = 0
KLE1 141033Z 04002KT 03/01 A3016 RMK A01 T00270009  RH  088%=      5-min Rain = 0
KLE1 141034Z 04002KT 03/01 A3016 RMK A01 T00290012  RH  089%=      5-min Rain = 0
KLE1 141035Z 03002KT 03/01 A3016 RMK A01 T00310014  RH  089%=      5-min Rain = 0
KLE1 141036Z 03002KT 03/01 A3016 RMK A01 T00320014  RH  088%=      5-min Rain = 0
KLE1 141037Z 04002KT 03/01 A3016 RMK A01 T00330013  RH  087%=      5-min Rain = 0
KLE1 141038Z 06002KT 03/01 A3016 RMK A01 T00330013  RH  086%=      5-min Rain = 0
KLE1 141039Z 06002KT 03/01 A3016 RMK A01 T00330012  RH  086%=      5-min Rain = 0
KLE1 141040Z 06002KT 03/01 A3016 RMK A01 T00330012  RH  086%=      5-min Rain = 0
KLE1 141041Z 07002KT 03/01 A3016 RMK A01 T00340011  RH  085%=      5-min Rain = 0
KLE1 141042Z 07002KT 03/01 A3016 RMK A01 T00340011  RH  085%=      5-min Rain = 0
KLE1 141043Z 07002KT 03/01 A3016 RMK A01 T00340011  RH  085%=      5-min Rain = 0
KLE1 141044Z 09003KT 03/01 A3016 RMK A01 T00340010  RH  084%=      5-min Rain = 0
KLE1 141045Z 09003KT 03/01 A3016 RMK A01 T00340009  RH  084%=      5-min Rain = 0
KLE1 141046Z 10003KT 03/01 A3016 RMK A01 T00330008  RH  084%=      5-min Rain = 0
KLE1 141047Z 11003KT 03/01 A3016 RMK A01 T00320007  RH  084%=      5-min Rain = 0
KLE1 141048Z 11003KT 03/01 A3016 RMK A01 T00310006  RH  083%=      5-min Rain = 0
KLE1 141049Z 11003KT 03/00 A3016 RMK A01 T00300004  RH  083%=      5-min Rain = 0
KLE1 141050Z 11003KT 03/00 A3016 RMK A01 T00290002  RH  083%=      5-min Rain = 0
KLE1 141051Z 11003KT 03/00 A3016 RMK A01 T00270001  RH  083%=      5-min Rain = 0
KLE1 141052Z 11003KT 03/00 A3016 RMK A01 T00270003  RH  084%=      5-min Rain = 0
KLE1 141053Z 12003KT 03/00 A3016 RMK A01 T00270003  RH  084%=      5-min Rain = 0
KLE1 141054Z 12003KT 03/00 A3016 RMK A01 T00270001  RH  083%=      5-min Rain = 0
KLE1 141055Z 13004KT 03/00 A3016 RMK A01 T00270004  RH  085%=      5-min Rain = 0
KLE1 141056Z 12003KT 03/01 A3015 RMK A01 T00290008  RH  086%=      5-min Rain = 0
KLE1 141057Z 12003KT 03/01 A3015 RMK A01 T00300008  RH  086%=      5-min Rain = 0
KLE1 141058Z 11002KT 03/01 A3015 RMK A01 T00300007  RH  085%=      5-min Rain = 0
KLE1 141059Z 10002KT 03/01 A3015 RMK A01 T00300006  RH  085%=      5-min Rain = 0
KLE1 141100Z 11002KT 03/01 A3015 RMK A01 T00300006  RH  085%=      5-min Rain = 0
KLE1 141101Z 10003KT 03/01 A3015 RMK A01 T00290005  RH  084%=      5-min Rain = 0
KLE1 141102Z 10003KT 03/00 A3015 RMK A01 T00290004  RH  084%=      5-min Rain = 0
KLE1 141103Z 09003KT 03/00 A3015 RMK A01 T00280002  RH  083%=      5-min Rain = 0
KLE1 141104Z 10003KT 03/00 A3015 RMK A01 T00270000  RH  082%=      5-min Rain = 0
KLE1 141105Z 10003KT 03/M00 A3015 RMK A01 T00261002  RH  082%=      5-min Rain = 0
KLE1 141106Z 11003KT 03/M00 A3015 RMK A01 T00251002  RH  083%=      5-min Rain = 0
KLE1 141107Z 11002KT 03/M00 A3015 RMK A01 T00251001  RH  083%=      5-min Rain = 0
KLE1 141108Z 11002KT 03/00 A3015 RMK A01 T00250000  RH  084%=      5-min Rain = 0
KLE1 141109Z 11001KT 02/00 A3015 RMK A01 T00240002  RH  085%=      5-min Rain = 0
KLE1 141110Z 11001KT 03/00 A3015 RMK A01 T00250004  RH  086%=      5-min Rain = 0
KLE1 141111Z 11002KT 03/01 A3015 RMK A01 T00260006  RH  087%=      5-min Rain = 0
KLE1 141112Z 11002KT 03/01 A3015 RMK A01 T00270007  RH  087%=      5-min Rain = 0
KLE1 141113Z 12001KT 03/01 A3015 RMK A01 T00270007  RH  087%=      5-min Rain = 0
KLE1 141114Z 11000KT 03/00 A3015 RMK A01 T00270003  RH  084%=      5-min Rain = 0
KLE1 141115Z 10001KT 03/00 A3015 RMK A01 T00250001  RH  084%=      5-min Rain = 0
KLE1 141116Z 11001KT 02/M00 A3015 RMK A01 T00241002  RH  083%=      5-min Rain = 0
KLE1 141117Z 11002KT 02/M01 A3015 RMK A01 T00231005  RH  082%=      5-min Rain = 0
KLE1 141118Z 10001KT 02/M01 A3015 RMK A01 T00211006  RH  082%=      5-min Rain = 0
KLE1 141119Z 08001KT 02/M01 A3015 RMK A01 T00191008  RH  082%=      5-min Rain = 0
KLE1 141120Z 36001KT 02/M01 A3015 RMK A01 T00191006  RH  084%=      5-min Rain = 0
KLE1 141121Z 32002KT 02/M01 A3015 RMK A01 T00191007  RH  083%=      5-min Rain = 0
KLE1 141122Z 34001KT 02/M01 A3015 RMK A01 T00181011  RH  081%=      5-min Rain = 0
KLE1 141123Z 33001KT 02/M01 A3015 RMK A01 T00161013  RH  081%=      5-min Rain = 0
KLE1 141124Z 33002KT 02/M01 A3015 RMK A01 T00151013  RH  082%=      5-min Rain = 0
KLE1 141125Z 34002KT 02/M01 A3015 RMK A01 T00151013  RH  082%=      5-min Rain = 0
KLE1 141126Z 33001KT 02/M01 A3015 RMK A01 T00151012  RH  083%=      5-min Rain = 0
KLE1 141127Z 32002KT 02/M01 A3015 RMK A01 T00151010  RH  083%=      5-min Rain = 0
KLE1 141128Z 33002KT 02/M01 A3015 RMK A01 T00161009  RH  084%=      5-min Rain = 0
KLE1 141129Z 34003KT 02/M01 A3015 RMK A01 T00161007  RH  084%=      5-min Rain = 0
KLE1 141130Z 34002KT 02/M01 A3015 RMK A01 T00171005  RH  085%=      5-min Rain = 0
KLE1 141131Z 32003KT 02/M01 A3015 RMK A01 T00181006  RH  084%=      5-min Rain = 0
KLE1 141132Z 32004KT 02/M01 A3015 RMK A01 T00181009  RH  082%=      5-min Rain = 0
KLE1 141133Z 34003KT 02/M02 A3015 RMK A01 T00161016  RH  079%=      5-min Rain = 0
KLE1 141134Z 35002KT 01/M02 A3015 RMK A01 T00141019  RH  079%=      5-min Rain = 0
KLE1 141135Z 32003KT 01/M02 A3015 RMK A01 T00131017  RH  080%=      5-min Rain = 0
KLE1 141136Z 32003KT 01/M02 A3015 RMK A01 T00131018  RH  080%=      5-min Rain = 0
KLE1 141137Z 34002KT 01/M02 A3015 RMK A01 T00131017  RH  081%=      5-min Rain = 0
KLE1 141138Z 34002KT 01/M02 A3015 RMK A01 T00121015  RH  082%=      5-min Rain = 0
KLE1 141139Z 35002KT 01/M01 A3015 RMK A01 T00131013  RH  083%=      5-min Rain = 0
KLE1 141140Z 01002KT 01/M01 A3015 RMK A01 T00141011  RH  084%=      5-min Rain = 0
KLE1 141141Z 01002KT 02/M01 A3015 RMK A01 T00151009  RH  084%=      5-min Rain = 0
KLE1 141142Z 01002KT 02/M01 A3015 RMK A01 T00161008  RH  085%=      5-min Rain = 0
KLE1 141143Z 01002KT 02/M01 A3015 RMK A01 T00171006  RH  085%=      5-min Rain = 0
KLE1 141144Z 03002KT 02/M01 A3015 RMK A01 T00171006  RH  085%=      5-min Rain = 0
KLE1 141145Z 03002KT 02/M00 A3015 RMK A01 T00181003  RH  086%=      5-min Rain = 0
KLE1 141146Z 01002KT 02/M00 A3015 RMK A01 T00181001  RH  087%=      5-min Rain = 0
KLE1 141147Z 01003KT 02/M00 A3015 RMK A01 T00191001  RH  087%=      5-min Rain = 0
KLE1 141148Z 00003KT 02/00 A3015 RMK A01 T00190001  RH  088%=      5-min Rain = 0
KLE1 141149Z 36003KT 02/00 A3015 RMK A01 T00200003  RH  089%=      5-min Rain = 0
KLE1 141150Z 01004KT 02/00 A3015 RMK A01 T00210003  RH  088%=      5-min Rain = 0
KLE1 141151Z 01003KT 02/01 A3015 RMK A01 T00220007  RH  090%=      5-min Rain = 0
KLE1 141152Z 01003KT 02/01 A3015 RMK A01 T00230009  RH  090%=      5-min Rain = 0
KLE1 141153Z 02003KT 02/01 A3015 RMK A01 T00240007  RH  089%=      5-min Rain = 0
KLE1 141154Z 04003KT 02/01 A3014 RMK A01 T00240007  RH  089%=      5-min Rain = 0
KLE1 141155Z 04002KT 03/01 A3015 RMK A01 T00250009  RH  089%=      5-min Rain = 0
KLE1 141156Z 03002KT 03/01 A3015 RMK A01 T00260010  RH  089%=      5-min Rain = 0
KLE1 141157Z 03002KT 03/01 A3015 RMK A01 T00270010  RH  089%=      5-min Rain = 0
KLE1 141158Z 02002KT 03/01 A3015 RMK A01 T00290012  RH  089%=      5-min Rain = 0
KLE1 141159Z 01003KT 03/02 A3015 RMK A01 T00310016  RH  090%=      5-min Rain = 0
KLE1 141200Z 01002KT 03/02 A3015 RMK A01 T00320017  RH  090%=      5-min Rain = 0
KLE1 141201Z 01003KT 03/02 A3015 RMK A01 T00330016  RH  089%=      5-min Rain = 0
KLE1 141202Z 02003KT 03/01 A3015 RMK A01 T00330014  RH  088%=      5-min Rain = 0
KLE1 141203Z 01002KT 03/01 A3015 RMK A01 T00320012  RH  087%=      5-min Rain = 0
KLE1 141204Z 03002KT 03/01 A3015 RMK A01 T00310009  RH  086%=      5-min Rain = 0
KLE1 141205Z 03002KT 03/01 A3015 RMK A01 T00300007  RH  085%=      5-min Rain = 0
KLE1 141206Z 02002KT 03/01 A3015 RMK A01 T00280005  RH  085%=      5-min Rain = 0
KLE1 141207Z 01002KT 03/00 A3015 RMK A01 T00270004  RH  085%=      5-min Rain = 0
KLE1 141208Z 02002KT 03/00 A3015 RMK A01 T00260003  RH  084%=      5-min Rain = 0
KLE1 141209Z 02002KT 03/00 A3015 RMK A01 T00250002  RH  085%=      5-min Rain = 0
KLE1 141210Z 04002KT 02/00 A3015 RMK A01 T00240002  RH  085%=      5-min Rain = 0
KLE1 141211Z 05001KT 02/00 A3015 RMK A01 T00240002  RH  085%=      5-min Rain = 0
KLE1 141212Z 04001KT 02/00 A3015 RMK A01 T00230002  RH  086%=      5-min Rain = 0
KLE1 141213Z 04002KT 02/00 A3015 RMK A01 T00230002  RH  086%=      5-min Rain = 0
KLE1 141214Z 03002KT 02/00 A3015 RMK A01 T00230003  RH  087%=      5-min Rain = 0
KLE1 141215Z 01002KT 02/00 A3015 RMK A01 T00230003  RH  087%=      5-min Rain = 0
KLE1 141216Z 01002KT 02/00 A3015 RMK A01 T00230004  RH  088%=      5-min Rain = 0
KLE1 141217Z 00001KT 02/00 A3015 RMK A01 T00230004  RH  087%=      5-min Rain = 0
KLE1 141218Z 00001KT 02/00 A3015 RMK A01 T00230003  RH  087%=      5-min Rain = 0
KLE1 141219Z 00000KT 02/00 A3015 RMK A01 T00230003  RH  087%=      5-min Rain = 0
KLE1 141220Z 01000KT 02/00 A3015 RMK A01 T00230003  RH  087%=      5-min Rain = 0
KLE1 141221Z 00000KT 02/00 A3015 RMK A01 T00230003  RH  087%=      5-min Rain = 0
KLE1 141222Z 03000KT 02/00 A3015 RMK A01 T00230004  RH  087%=      5-min Rain = 0
KLE1 141223Z 00000KT 02/00 A3015 RMK A01 T00230004  RH  087%=      5-min Rain = 0
KLE1 141224Z 06000KT 02/00 A3015 RMK A01 T00230004  RH  087%=      5-min Rain = 0
KLE1 141225Z 07000KT 02/01 A3015 RMK A01 T00240006  RH  088%=      5-min Rain = 0
KLE1 141226Z 08001KT 03/01 A3015 RMK A01 T00250009  RH  089%=      5-min Rain = 0
KLE1 141227Z 08001KT 03/01 A3015 RMK A01 T00260010  RH  090%=      5-min Rain = 0
KLE1 141228Z 08001KT 03/01 A3015 RMK A01 T00260010  RH  089%=      5-min Rain = 0
KLE1 141229Z 08000KT 03/01 A3015 RMK A01 T00260009  RH  088%=      5-min Rain = 0
KLE1 141230Z 31000KT 03/01 A3016 RMK A01 T00270008  RH  088%=      5-min Rain = 0
KLE1 141231Z 29001KT 03/01 A3016 RMK A01 T00270008  RH  087%=      5-min Rain = 0
KLE1 141232Z 27001KT 03/01 A3016 RMK A01 T00270008  RH  088%=      5-min Rain = 0
KLE1 141233Z 24001KT 03/01 A3016 RMK A01 T00260009  RH  088%=      5-min Rain = 0
KLE1 141234Z 22001KT 03/01 A3016 RMK A01 T00270009  RH  088%=      5-min Rain = 0
KLE1 141235Z 21001KT 03/01 A3016 RMK A01 T00260007  RH  087%=      5-min Rain = 0
KLE1 141236Z 21001KT 03/01 A3016 RMK A01 T00260007  RH  087%=      5-min Rain = 0
KLE1 141237Z 20001KT 03/01 A3016 RMK A01 T00260007  RH  087%=      5-min Rain = 0
KLE1 141238Z 19001KT 03/01 A3015 RMK A01 T00260007  RH  087%=      5-min Rain = 0
KLE1 141239Z 19001KT 03/01 A3015 RMK A01 T00260007  RH  087%=      5-min Rain = 0
KLE1 141240Z 19001KT 03/01 A3016 RMK A01 T00260007  RH  087%=      5-min Rain = 0
KLE1 141241Z 18002KT 03/01 A3016 RMK A01 T00260007  RH  087%=      5-min Rain = 0
KLE1 141242Z 18002KT 03/01 A3016 RMK A01 T00270008  RH  087%=      5-min Rain = 0
KLE1 141243Z 18002KT 03/01 A3016 RMK A01 T00270008  RH  087%=      5-min Rain = 0
KLE1 141244Z 18001KT 03/01 A3016 RMK A01 T00270008  RH  087%=      5-min Rain = 0
KLE1 141245Z 18001KT 03/01 A3016 RMK A01 T00260006  RH  087%=      5-min Rain = 0
KLE1 141246Z 18001KT 03/01 A3016 RMK A01 T00250007  RH  088%=      5-min Rain = 0
KLE1 141247Z 18001KT 02/01 A3016 RMK A01 T00240007  RH  088%=      5-min Rain = 0
KLE1 141248Z 18001KT 03/01 A3016 RMK A01 T00250008  RH  089%=      5-min Rain = 0
KLE1 141249Z 18000KT 03/01 A3016 RMK A01 T00250009  RH  089%=      5-min Rain = 0
KLE1 141250Z 00000KT 03/01 A3016 RMK A01 T00260009  RH  089%=      5-min Rain = 0
KLE1 141251Z 00000KT 03/01 A3016 RMK A01 T00260010  RH  089%=      5-min Rain = 0
KLE1 141252Z 00000KT 03/01 A3016 RMK A01 T00260011  RH  090%=      5-min Rain = 0
KLE1 141253Z 00000KT 03/01 A3016 RMK A01 T00270011  RH  089%=      5-min Rain = 0
KLE1 141254Z 00000KT 03/01 A3015 RMK A01 T00260009  RH  088%=      5-min Rain = 0
KLE1 141255Z 00000KT 03/01 A3015 RMK A01 T00260009  RH  089%=      5-min Rain = 0
KLE1 141256Z 00000KT 03/01 A3015 RMK A01 T00260010  RH  089%=      5-min Rain = 0
KLE1 141257Z 33000KT 03/01 A3016 RMK A01 T00250010  RH  090%=      5-min Rain = 0
KLE1 141258Z 33001KT 03/01 A3016 RMK A01 T00250007  RH  088%=      5-min Rain = 0
KLE1 141259Z 35001KT 02/00 A3016 RMK A01 T00230004  RH  087%=      5-min Rain = 0
KLE1 141300Z 36001KT 02/M00 A3016 RMK A01 T00211001  RH  086%=      5-min Rain = 0
KLE1 141301Z 02001KT 02/00 A3016 RMK A01 T001900-0  RH  087%=      5-min Rain = 0
KLE1 141302Z 06000KT 02/00 A3016 RMK A01 T00190003  RH  090%=      5-min Rain = 0
KLE1 141303Z 09001KT 02/01 A3016 RMK A01 T00190005  RH  091%=      5-min Rain = 0
KLE1 141304Z 12001KT 02/01 A3016 RMK A01 T00190006  RH  091%=      5-min Rain = 0
KLE1 141305Z 12001KT 02/01 A3016 RMK A01 T00200008  RH  092%=      5-min Rain = 0
KLE1 141306Z 12001KT 02/01 A3016 RMK A01 T00210010  RH  092%=      5-min Rain = 0
KLE1 141307Z 12000KT 02/01 A3016 RMK A01 T00230013  RH  093%=      5-min Rain = 0
KLE1 141308Z 00000KT 02/02 A3016 RMK A01 T00240015  RH  094%=      5-min Rain = 0
KLE1 141309Z 00000KT 03/02 A3016 RMK A01 T00250016  RH  094%=      5-min Rain = 0
KLE1 141310Z 00000KT 03/02 A3016 RMK A01 T00260017  RH  094%=      5-min Rain = 0
KLE1 141311Z 00000KT 03/02 A3016 RMK A01 T00260017  RH  094%=      5-min Rain = 0
KLE1 141312Z 00000KT 03/02 A3016 RMK A01 T00260015  RH  092%=      5-min Rain = 0
KLE1 141313Z 00000KT 03/01 A3016 RMK A01 T00260012  RH  090%=      5-min Rain = 0
KLE1 141314Z 35000KT 03/01 A3016 RMK A01 T00260009  RH  089%=      5-min Rain = 0
KLE1 141315Z 35001KT 03/01 A3016 RMK A01 T00250005  RH  087%=      5-min Rain = 0
KLE1 141316Z 34001KT 02/00 A3016 RMK A01 T00230002  RH  086%=      5-min Rain = 0
KLE1 141317Z 33001KT 02/00 A3016 RMK A01 T002200-0  RH  085%=      5-min Rain = 0
KLE1 141318Z 34001KT 02/M00 A3015 RMK A01 T00201002  RH  085%=      5-min Rain = 0
KLE1 141319Z 00001KT 02/M01 A3015 RMK A01 T00181006  RH  084%=      5-min Rain = 0
KLE1 141320Z 01001KT 02/M01 A3015 RMK A01 T00161007  RH  085%=      5-min Rain = 0
KLE1 141321Z 00001KT 02/M01 A3015 RMK A01 T00151005  RH  086%=      5-min Rain = 0
KLE1 141322Z 00002KT 02/M00 A3016 RMK A01 T00161003  RH  087%=      5-min Rain = 0
KLE1 141323Z 36002KT 02/M00 A3015 RMK A01 T00171001  RH  088%=      5-min Rain = 0
KLE1 141324Z 35003KT 02/00 A3015 RMK A01 T001700-0  RH  088%=      5-min Rain = 0
KLE1 141325Z 35002KT 02/00 A3015 RMK A01 T00180000  RH  088%=      5-min Rain = 0
KLE1 141326Z 35002KT 02/00 A3015 RMK A01 T001800-0  RH  088%=      5-min Rain = 0
KLE1 141327Z 35003KT 02/M00 A3015 RMK A01 T00171001  RH  088%=      5-min Rain = 0
KLE1 141328Z 35003KT 02/M00 A3015 RMK A01 T00171002  RH  087%=      5-min Rain = 0
KLE1 141329Z 35004KT 02/M01 A3015 RMK A01 T00151005  RH  086%=      5-min Rain = 0
KLE1 141330Z 35004KT 01/M01 A3015 RMK A01 T00141006  RH  086%=      5-min Rain = 0
KLE1 141331Z 35005KT 01/M01 A3015 RMK A01 T00141006  RH  087%=      5-min Rain = 0
KLE1 141332Z 35005KT 01/M01 A3014 RMK A01 T00131005  RH  087%=      5-min Rain = 0
KLE1 141333Z 35005KT 01/M00 A3014 RMK A01 T00141003  RH  088%=      5-min Rain = 0
KLE1 141334Z 35005KT 02/M00 A3014 RMK A01 T00151001  RH  089%=      5-min Rain = 0
KLE1 141335Z 35004KT 02/M00 A3015 RMK A01 T00151001  RH  089%=      5-min Rain = 0
KLE1 141336Z 34004KT 02/M00 A3015 RMK A01 T00161002  RH  088%=      5-min Rain = 0
KLE1 141337Z 34003KT 02/M00 A3015 RMK A01 T00161002  RH  088%=      5-min Rain = 0
KLE1 141338Z 34003KT 02/M00 A3015 RMK A01 T00171001  RH  088%=      5-min Rain = 0
KLE1 141339Z 34003KT 02/00 A3015 RMK A01 T00180000  RH  088%=      5-min Rain = 0
KLE1 141340Z 35003KT 02/00 A3015 RMK A01 T00190002  RH  089%=      5-min Rain = 0
KLE1 141341Z 35003KT 02/00 A3015 RMK A01 T00200002  RH  088%=      5-min Rain = 0
KLE1 141342Z 35003KT 02/00 A3015 RMK A01 T00210003  RH  088%=      5-min Rain = 0
KLE1 141343Z 36003KT 02/00 A3015 RMK A01 T00210004  RH  089%=      5-min Rain = 0
KLE1 141344Z 00003KT 02/01 A3015 RMK A01 T00220006  RH  089%=      5-min Rain = 0
KLE1 141345Z 00004KT 02/01 A3015 RMK A01 T00230008  RH  089%=      5-min Rain = 0
KLE1 141346Z 36004KT 03/01 A3015 RMK A01 T00250009  RH  089%=      5-min Rain = 0
KLE1 141347Z 35003KT 03/01 A3015 RMK A01 T00260009  RH  089%=      5-min Rain = 0
KLE1 141348Z 35004KT 03/01 A3015 RMK A01 T00270010  RH  089%=      5-min Rain = 0
KLE1 141349Z 35003KT 03/01 A3015 RMK A01 T00270010  RH  088%=      5-min Rain = 0
KLE1 141350Z 35003KT 03/01 A3015 RMK A01 T00270010  RH  088%=      5-min Rain = 0
KLE1 141351Z 00002KT 03/01 A3015 RMK A01 T00290012  RH  089%=      5-min Rain = 0
KLE1 141352Z 01002KT 03/02 A3015 RMK A01 T00300015  RH  090%=      5-min Rain = 0
KLE1 141353Z 01003KT 03/02 A3015 RMK A01 T00320017  RH  090%=      5-min Rain = 0
KLE1 141354Z 01003KT 03/02 A3015 RMK A01 T00340020  RH  090%=      5-min Rain = 0
KLE1 141355Z 00003KT 04/02 A3015 RMK A01 T00360020  RH  089%=      5-min Rain = 0
KLE1 141356Z 36003KT 04/02 A3015 RMK A01 T00370018  RH  088%=      5-min Rain = 0
KLE1 141357Z 35003KT 04/02 A3015 RMK A01 T00370018  RH  087%=      5-min Rain = 0
KLE1 141358Z 34004KT 04/02 A3015 RMK A01 T00380016  RH  086%=      5-min Rain = 0
KLE1 141359Z 34004KT 04/01 A3015 RMK A01 T00360011  RH  083%=      5-min Rain = 0
KLE1 141400Z 34004KT 03/01 A3015 RMK A01 T00340007  RH  083%=      5-min Rain = 0
KLE1 141401Z 34004KT 03/01 A3015 RMK A01 T00320006  RH  083%=      5-min Rain = 0
KLE1 141402Z 34005KT 03/01 A3015 RMK A01 T00300005  RH  084%=      5-min Rain = 0
KLE1 141403Z 34005KT 03/01 A3015 RMK A01 T00290006  RH  085%=      5-min Rain = 0
KLE1 141404Z 34004KT 03/01 A3015 RMK A01 T00280005  RH  085%=      5-min Rain = 0
KLE1 141405Z 34004KT 03/00 A3015 RMK A01 T00270004  RH  085%=      5-min Rain = 0
KLE1 141406Z 34004KT 03/01 A3015 RMK A01 T00260005  RH  086%=      5-min Rain = 0
KLE1 141407Z 34003KT 03/01 A3015 RMK A01 T00270009  RH  088%=      5-min Rain = 0
KLE1 141408Z 35003KT 03/02 A3015 RMK A01 T00310017  RH  091%=      5-min Rain = 0
KLE1 141409Z 34002KT 03/02 A3015 RMK A01 T00340020  RH  090%=      5-min Rain = 0
KLE1 141410Z 34002KT 04/02 A3015 RMK A01 T00360019  RH  088%=      5-min Rain = 0
KLE1 141411Z 34002KT 04/02 A3015 RMK A01 T00380019  RH  088%=      5-min Rain = 0
KLE1 141412Z 34001KT 04/02 A3015 RMK A01 T00390021  RH  088%=      5-min Rain = 0
KLE1 141413Z 34001KT 04/02 A3015 RMK A01 T00410023  RH  088%=      5-min Rain = 0
KLE1 141414Z 34001KT 04/03 A3015 RMK A01 T00440026  RH  088%=      5-min Rain = 0
KLE1 141415Z 34001KT 05/03 A3015 RMK A01 T00480029  RH  088%=      5-min Rain = 0
KLE1 141416Z 35001KT 05/03 A3015 RMK A01 T00510031  RH  087%=      5-min Rain = 0
KLE1 141417Z 35001KT 06/03 A3014 RMK A01 T00550032  RH  085%=      5-min Rain = 0
KLE1 141418Z 35001KT 06/03 A3014 RMK A01 T00580032  RH  084%=      5-min Rain = 0
KLE1 141419Z 35001KT 06/03 A3014 RMK A01 T00600032  RH  082%=      5-min Rain = 0
KLE1 141420Z 34002KT 06/03 A3014 RMK A01 T00610030  RH  081%=      5-min Rain = 0
KLE1 141421Z 34003KT 06/03 A3014 RMK A01 T00610029  RH  080%=      5-min Rain = 0
KLE1 141422Z 33003KT 06/03 A3014 RMK A01 T00600028  RH  080%=      5-min Rain = 0
KLE1 141423Z 34003KT 06/03 A3014 RMK A01 T00580026  RH  080%=      5-min Rain = 0
KLE1 141424Z 34003KT 06/02 A3014 RMK A01 T00560023  RH  079%=      5-min Rain = 0
KLE1 141425Z 34003KT 05/02 A3014 RMK A01 T00530021  RH  080%=      5-min Rain = 0
KLE1 141426Z 34004KT 05/02 A3014 RMK A01 T00520022  RH  081%=      5-min Rain = 0
KLE1 141427Z 34003KT 05/02 A3015 RMK A01 T00510019  RH  080%=      5-min Rain = 0
KLE1 141428Z 33003KT 05/02 A3015 RMK A01 T00490016  RH  079%=      5-min Rain = 0
KLE1 141429Z 33003KT 05/02 A3015 RMK A01 T00480017  RH  080%=      5-min Rain = 0
KLE1 141430Z 32004KT 05/02 A3015 RMK A01 T00470018  RH  081%=      5-min Rain = 0
KLE1 141431Z 33004KT 05/02 A3015 RMK A01 T00480020  RH  082%=      5-min Rain = 0
KLE1 141432Z 33004KT 05/02 A3015 RMK A01 T00490020  RH  081%=      5-min Rain = 0
KLE1 141433Z 32003KT 05/02 A3015 RMK A01 T00490019  RH  081%=      5-min Rain = 0
KLE1 141434Z 32003KT 05/02 A3015 RMK A01 T00490018  RH  080%=      5-min Rain = 0
KLE1 141435Z 32003KT 05/02 A3015 RMK A01 T00490017  RH  080%=      5-min Rain = 0
KLE1 141436Z 33003KT 05/02 A3015 RMK A01 T00490019  RH  081%=      5-min Rain = 0
KLE1 141437Z 33003KT 05/02 A3015 RMK A01 T00510023  RH  082%=      5-min Rain = 0
KLE1 141438Z 33002KT 05/03 A3015 RMK A01 T00530026  RH  083%=      5-min Rain = 0
KLE1 141439Z 34002KT 06/03 A3015 RMK A01 T00570030  RH  083%=      5-min Rain = 0
KLE1 141440Z 34002KT 06/03 A3015 RMK A01 T00610033  RH  082%=      5-min Rain = 0
KLE1 141441Z 34002KT 06/03 A3015 RMK A01 T00640034  RH  081%=      5-min Rain = 0
KLE1 141442Z 34002KT 07/04 A3015 RMK A01 T00670035  RH  080%=      5-min Rain = 0
KLE1 141443Z 34002KT 07/04 A3015 RMK A01 T00700035  RH  078%=      5-min Rain = 0
KLE1 141444Z 35002KT 07/04 A3015 RMK A01 T00710035  RH  078%=      5-min Rain = 0
KLE1 141445Z 35002KT 07/04 A3015 RMK A01 T00730036  RH  077%=      5-min Rain = 0
KLE1 141446Z 00001KT 07/04 A3015 RMK A01 T00740036  RH  076%=      5-min Rain = 0
KLE1 141447Z 02000KT 08/04 A3016 RMK A01 T00750035  RH  076%=      5-min Rain = 0
KLE1 141448Z 13001KT 08/04 A3016 RMK A01 T00760035  RH  075%=      5-min Rain = 0
KLE1 141449Z 13003KT 08/03 A3016 RMK A01 T00780034  RH  074%=      5-min Rain = 0
KLE1 141450Z 13004KT 08/03 A3016 RMK A01 T00760026  RH  071%=      5-min Rain = 0
KLE1 141451Z 13004KT 07/02 A3016 RMK A01 T00710019  RH  069%=      5-min Rain = 0
KLE1 141452Z 14004KT 07/02 A3016 RMK A01 T00670016  RH  070%=      5-min Rain = 0
KLE1 141453Z 14004KT 06/01 A3016 RMK A01 T00630011  RH  069%=      5-min Rain = 0
KLE1 141454Z 14004KT 06/01 A3015 RMK A01 T00590007  RH  069%=      5-min Rain = 0
KLE1 141455Z 14003KT 06/01 A3015 RMK A01 T00570007  RH  070%=      5-min Rain = 0
KLE1 141456Z 14003KT 06/01 A3015 RMK A01 T00550006  RH  071%=      5-min Rain = 0
KLE1 141457Z 14002KT 05/01 A3015 RMK A01 T00540006  RH  071%=      5-min Rain = 0
KLE1 141458Z 13002KT 05/01 A3015 RMK A01 T00540006  RH  071%=      5-min Rain = 0
KLE1 141459Z 12002KT 05/01 A3015 RMK A01 T00530006  RH  072%=      5-min Rain = 0
KLE1 141500Z 11002KT 05/01 A3015 RMK A01 T00530008  RH  072%=      5-min Rain = 0
KLE1 141501Z 10003KT 05/01 A3015 RMK A01 T00540009  RH  073%=      5-min Rain = 0
KLE1 141502Z 10003KT 06/01 A3015 RMK A01 T00550010  RH  073%=      5-min Rain = 0
KLE1 141503Z 09002KT 06/01 A3015 RMK A01 T00560011  RH  073%=      5-min Rain = 0
KLE1 141504Z 09002KT 06/01 A3015 RMK A01 T00570010  RH  072%=      5-min Rain = 0
KLE1 141505Z 07002KT 06/01 A3015 RMK A01 T00580013  RH  073%=      5-min Rain = 0
KLE1 141506Z 06002KT 06/02 A3015 RMK A01 T00600016  RH  073%=      5-min Rain = 0
KLE1 141507Z 00001KT 06/02 A3015 RMK A01 T00620021  RH  075%=      5-min Rain = 0
KLE1 141508Z 01001KT 07/03 A3015 RMK A01 T00650025  RH  075%=      5-min Rain = 0
KLE1 141509Z 02002KT 07/03 A3015 RMK A01 T00680028  RH  075%=      5-min Rain = 0
KLE1 141510Z 04001KT 07/03 A3015 RMK A01 T00720031  RH  075%=      5-min Rain = 0
KLE1 141511Z 05001KT 08/03 A3015 RMK A01 T00760033  RH  074%=      5-min Rain = 0
KLE1 141512Z 05001KT 08/03 A3015 RMK A01 T00790032  RH  072%=      5-min Rain = 0
KLE1 141513Z 05001KT 08/03 A3015 RMK A01 T00820033  RH  071%=      5-min Rain = 0
KLE1 141514Z 06001KT 08/03 A3015 RMK A01 T00840033  RH  070%=      5-min Rain = 0
KLE1 141515Z 06000KT 09/03 A3015 RMK A01 T00860033  RH  069%=      5-min Rain = 0
KLE1 141516Z 00000KT 09/03 A3015 RMK A01 T00880032  RH  068%=      5-min Rain = 0
KLE1 141517Z 05001KT 09/03 A3015 RMK A01 T00900033  RH  067%=      5-min Rain = 0
KLE1 141518Z 06000KT 09/03 A3015 RMK A01 T00920030  RH  065%=      5-min Rain = 0
KLE1 141519Z 15001KT 09/03 A3015 RMK A01 T00940031  RH  065%=      5-min Rain = 0
KLE1 141520Z 15002KT 10/03 A3016 RMK A01 T00960031  RH  064%=      5-min Rain = 0
KLE1 141521Z 15003KT 10/03 A3016 RMK A01 T00970033  RH  064%=      5-min Rain = 0
KLE1 141522Z 15003KT 10/03 A3016 RMK A01 T00970031  RH  063%=      5-min Rain = 0
KLE1 141523Z 16003KT 10/03 A3016 RMK A01 T00950029  RH  063%=      5-min Rain = 0
KLE1 141524Z 17003KT 09/03 A3015 RMK A01 T00920027  RH  064%=      5-min Rain = 0
KLE1 141525Z 17003KT 09/02 A3016 RMK A01 T00880020  RH  062%=      5-min Rain = 0
KLE1 141526Z 17003KT 08/02 A3016 RMK A01 T00840017  RH  063%=      5-min Rain = 0
KLE1 141527Z 18003KT 08/02 A3016 RMK A01 T00830017  RH  063%=      5-min Rain = 0
KLE1 141528Z 19003KT 08/02 A3016 RMK A01 T00820016  RH  063%=      5-min Rain = 0
KLE1 141529Z 18003KT 08/02 A3016 RMK A01 T00810016  RH  063%=      5-min Rain = 0
KLE1 141530Z 19002KT 08/02 A3016 RMK A01 T00800016  RH  064%=      5-min Rain = 0
KLE1 141531Z 21002KT 08/02 A3015 RMK A01 T00800016  RH  064%=      5-min Rain = 0
KLE1 141532Z 20002KT 08/01 A3015 RMK A01 T00800014  RH  063%=      5-min Rain = 0
KLE1 141533Z 19002KT 08/01 A3016 RMK A01 T00800013  RH  063%=      5-min Rain = 0
KLE1 141534Z 19003KT 08/01 A3016 RMK A01 T00800013  RH  063%=      5-min Rain = 0
KLE1 141535Z 19004KT 08/01 A3016 RMK A01 T00800012  RH  062%=      5-min Rain = 0
KLE1 141536Z 19003KT 08/01 A3016 RMK A01 T00810011  RH  062%=      5-min Rain = 0
KLE1 141537Z 19003KT 08/01 A3016 RMK A01 T00800011  RH  062%=      5-min Rain = 0
KLE1 141538Z 20003KT 08/01 A3016 RMK A01 T00800012  RH  062%=      5-min Rain = 0
KLE1 141539Z 20003KT 08/01 A3016 RMK A01 T00790012  RH  063%=      5-min Rain = 0
KLE1 141540Z 18003KT 08/01 A3016 RMK A01 T00790013  RH  063%=      5-min Rain = 0
KLE1 141541Z 18004KT 08/01 A3017 RMK A01 T00790013  RH  063%=      5-min Rain = 0
KLE1 141542Z 18004KT 08/01 A3017 RMK A01 T00800014  RH  063%=      5-min Rain = 0
KLE1 141543Z 19004KT 08/02 A3016 RMK A01 T00790015  RH  064%=      5-min Rain = 0
KLE1 141544Z 20003KT 08/02 A3016 RMK A01 T00790015  RH  064%=      5-min Rain = 0
KLE1 141545Z 23002KT 08/02 A3016 RMK A01 T00800017  RH  064%=      5-min Rain = 0
KLE1 141546Z 24001KT 08/02 A3016 RMK A01 T00810018  RH  065%=      5-min Rain = 0
KLE1 141547Z 24001KT 08/02 A3016 RMK A01 T00830019  RH  064%=      5-min Rain = 0
KLE1 141548Z 24001KT 09/02 A3016 RMK A01 T00860020  RH  063%=      5-min Rain = 0
KLE1 141549Z 24001KT 09/02 A3016 RMK A01 T00880021  RH  063%=      5-min Rain = 0
KLE1 141550Z 19000KT 09/02 A3016 RMK A01 T00900022  RH  063%=      5-min Rain = 0
KLE1 141551Z 00000KT 09/02 A3016 RMK A01 T00920022  RH  061%=      5-min Rain = 0
KLE1 141552Z 00000KT 10/02 A3016 RMK A01 T00950022  RH  061%=      5-min Rain = 0
KLE1 141553Z 02000KT 10/02 A3016 RMK A01 T00970023  RH  060%=      5-min Rain = 0
KLE1 141554Z 01001KT 10/02 A3015 RMK A01 T01000024  RH  059%=      5-min Rain = 0
KLE1 141555Z 34001KT 10/02 A3016 RMK A01 T01020024  RH  058%=      5-min Rain = 0
KLE1 141556Z 32001KT 11/02 A3016 RMK A01 T01050024  RH  058%=      5-min Rain = 0
KLE1 141557Z 32002KT 11/02 A3016 RMK A01 T01060023  RH  056%=      5-min Rain = 0
KLE1 141558Z 32002KT 11/03 A3016 RMK A01 T01080025  RH  056%=      5-min Rain = 0
KLE1 141559Z 32002KT 11/02 A3016 RMK A01 T01100024  RH  055%=      5-min Rain = 0
KLE1 141600Z 33002KT 11/02 A3016 RMK A01 T01110023  RH  055%=      5-min Rain = 0
KLE1 141601Z 31001KT 11/02 A3016 RMK A01 T01110023  RH  054%=      5-min Rain = 0
KLE1 141602Z 30001KT 11/02 A3016 RMK A01 T01110023  RH  055%=      5-min Rain = 0
KLE1 141603Z 29000KT 11/02 A3016 RMK A01 T01110023  RH  055%=      5-min Rain = 0
KLE1 141604Z 33001KT 11/02 A3016 RMK A01 T01110021  RH  054%=      5-min Rain = 0
KLE1 141605Z 32001KT 11/02 A3015 RMK A01 T01110020  RH  053%=      5-min Rain = 0
KLE1 141606Z 33002KT 11/02 A3015 RMK A01 T01120021  RH  054%=      5-min Rain = 0
KLE1 141607Z 33002KT 11/02 A3015 RMK A01 T01130019  RH  053%=      5-min Rain = 0
KLE1 141608Z 33002KT 11/02 A3015 RMK A01 T01130021  RH  053%=      5-min Rain = 0
KLE1 141609Z 31001KT 11/02 A3015 RMK A01 T01130020  RH  053%=      5-min Rain = 0
KLE1 141610Z 30002KT 11/02 A3015 RMK A01 T01130021  RH  053%=      5-min Rain = 0
KLE1 141611Z 30001KT 11/02 A3015 RMK A01 T01130020  RH  053%=      5-min Rain = 0
KLE1 141612Z 30002KT 11/02 A3015 RMK A01 T01140020  RH  053%=      5-min Rain = 0
KLE1 141613Z 30002KT 11/02 A3015 RMK A01 T01140020  RH  052%=      5-min Rain = 0
KLE1 141614Z 31002KT 12/02 A3015 RMK A01 T01160018  RH  051%=      5-min Rain = 0
KLE1 141615Z 32003KT 12/02 A3015 RMK A01 T01170017  RH  050%=      5-min Rain = 0
KLE1 141616Z 32003KT 12/02 A3015 RMK A01 T01180017  RH  050%=      5-min Rain = 0
KLE1 141617Z 32004KT 12/02 A3015 RMK A01 T01190018  RH  050%=      5-min Rain = 0
KLE1 141618Z 32004KT 12/02 A3015 RMK A01 T01210016  RH  049%=      5-min Rain = 0
KLE1 141619Z 31004KT 12/02 A3015 RMK A01 T01210017  RH  049%=      5-min Rain = 0
KLE1 141620Z 32003KT 12/01 A3015 RMK A01 T01210014  RH  048%=      5-min Rain = 0
KLE1 141621Z 30004KT 12/02 A3015 RMK A01 T01220017  RH  049%=      5-min Rain = 0
KLE1 141622Z 31004KT 12/02 A3015 RMK A01 T01240015  RH  047%=      5-min Rain = 0
KLE1 141623Z 30003KT 12/01 A3015 RMK A01 T01240014  RH  047%=      5-min Rain = 0
KLE1 141624Z 30004KT 12/01 A3015 RMK A01 T01240012  RH  046%=      5-min Rain = 0
KLE1 141625Z 30002KT 12/01 A3015 RMK A01 T01240011  RH  046%=      5-min Rain = 0
KLE1 141626Z 31004KT 13/01 A3015 RMK A01 T01250013  RH  046%=      5-min Rain = 0
KLE1 141627Z 28003KT 13/01 A3015 RMK A01 T01260010  RH  045%=      5-min Rain = 0
KLE1 141628Z 32003KT 13/01 A3015 RMK A01 T01270010  RH  045%=      5-min Rain = 0
KLE1 141629Z 31003KT 13/01 A3015 RMK A01 T01280010  RH  044%=      5-min Rain = 0
KLE1 141630Z 30004KT 13/01 A3015 RMK A01 T01300011  RH  044%=      5-min Rain = 0
KLE1 141631Z 31002KT 13/01 A3015 RMK A01 T01320009  RH  043%=      5-min Rain = 0
KLE1 141632Z 31004KT 13/01 A3015 RMK A01 T01320009  RH  043%=      5-min Rain = 0
KLE1 141633Z 31003KT 13/01 A3015 RMK A01 T01340007  RH  042%=      5-min Rain = 0
KLE1 141634Z 29003KT 13/01 A3015 RMK A01 T01340008  RH  042%=      5-min Rain = 0
KLE1 141635Z 29003KT 13/01 A3015 RMK A01 T01330009  RH  043%=      5-min Rain = 0
KLE1 141636Z 28003KT 13/01 A3015 RMK A01 T01340012  RH  043%=      5-min Rain = 0
KLE1 141637Z 31005KT 14/01 A3015 RMK A01 T01370011  RH  042%=      5-min Rain = 0
KLE1 141638Z 31005KT 14/01 A3015 RMK A01 T01380009  RH  042%=      5-min Rain = 0
KLE1 141639Z 30004KT 14/01 A3015 RMK A01 T01370009  RH  041%=      5-min Rain = 0
KLE1 141640Z 31005KT 14/01 A3014 RMK A01 T01360008  RH  042%=      5-min Rain = 0
KLE1 141641Z 31004KT 14/01 A3014 RMK A01 T01360008  RH  042%=      5-min Rain = 0
KLE1 141642Z 30004KT 13/01 A3014 RMK A01 T01340008  RH  042%=      5-min Rain = 0
KLE1 141643Z 30004KT 13/01 A3014 RMK A01 T01340007  RH  042%=      5-min Rain = 0
KLE1 141644Z 29005KT 13/01 A3014 RMK A01 T01340006  RH  041%=      5-min Rain = 0
KLE1 141645Z 29005KT 14/01 A3014 RMK A01 T01380006  RH  041%=      5-min Rain = 0
KLE1 141646Z 29005KT 14/00 A3014 RMK A01 T01390004  RH  040%=      5-min Rain = 0
KLE1 141647Z 29004KT 14/00 A3014 RMK A01 T01390004  RH  040%=      5-min Rain = 0
KLE1 141648Z 28005KT 14/01 A3014 RMK A01 T01390005  RH  040%=      5-min Rain = 0
KLE1 141649Z 29005KT 14/00 A3014 RMK A01 T01400004  RH  040%=      5-min Rain = 0
KLE1 141650Z 29004KT 14/00 A3014 RMK A01 T01400004  RH  039%=      5-min Rain = 0
KLE1 141651Z 29004KT 14/01 A3014 RMK A01 T01400005  RH  040%=      5-min Rain = 0
KLE1 141652Z 29005KT 14/01 A3014 RMK A01 T01410006  RH  040%=      5-min Rain = 0
KLE1 141653Z 29004KT 14/01 A3014 RMK A01 T01400005  RH  040%=      5-min Rain = 0
KLE1 141654Z 28005KT 14/01 A3014 RMK A01 T01410006  RH  040%=      5-min Rain = 0
KLE1 141655Z 28005KT 14/01 A3014 RMK A01 T01420005  RH  039%=      5-min Rain = 0
KLE1 141656Z 28005KT 14/01 A3014 RMK A01 T01430005  RH  039%=      5-min Rain = 0
KLE1 141657Z 28005KT 14/01 A3014 RMK A01 T01440005  RH  038%=      5-min Rain = 0
KLE1 141658Z 29004KT 14/01 A3013 RMK A01 T01440005  RH  039%=      5-min Rain = 0
KLE1 141659Z 29004KT 14/01 A3013 RMK A01 T01440005  RH  039%=      5-min Rain = 0
KLE1 141700Z 29004KT 14/01 A3013 RMK A01 T01440005  RH  039%=      5-min Rain = 0
KLE1 141701Z 29005KT 15/01 A3013 RMK A01 T01450005  RH  038%=      5-min Rain = 0
KLE1 141702Z 29006KT 15/00 A3013 RMK A01 T01470004  RH  038%=      5-min Rain = 0
KLE1 141703Z 28005KT 15/00 A3013 RMK A01 T01490004  RH  037%=      5-min Rain = 0
KLE1 141704Z 28005KT 15/01 A3014 RMK A01 T01510005  RH  037%=      5-min Rain = 0
KLE1 141705Z 28005KT 15/00 A3013 RMK A01 T01510004  RH  036%=      5-min Rain = 0
KLE1 141706Z 28005KT 15/00 A3013 RMK A01 T01510004  RH  037%=      5-min Rain = 0
KLE1 141707Z 27005KT 15/00 A3013 RMK A01 T01510004  RH  037%=      5-min Rain = 0
KLE1 141708Z 27006KT 15/00 A3013 RMK A01 T01520003  RH  036%=      5-min Rain = 0
KLE1 141709Z 28005KT 15/00 A3013 RMK A01 T01530002  RH  036%=      5-min Rain = 0
KLE1 141710Z 27005KT 15/01 A3013 RMK A01 T01540005  RH  036%=      5-min Rain = 0
KLE1 141711Z 25006KT 16/00 A3013 RMK A01 T01560004  RH  036%=      5-min Rain = 0
KLE1 141712Z 25006KT 16/00 A3013 RMK A01 T01560004  RH  036%=      5-min Rain = 0
KLE1 141713Z 26006KT 16/00 A3013 RMK A01 T01550004  RH  036%=      5-min Rain = 0
KLE1 141714Z 28006KT 16/01 A3013 RMK A01 T01550005  RH  036%=      5-min Rain = 0
KLE1 141715Z 27007KT 16/00 A3013 RMK A01 T01560004  RH  036%=      5-min Rain = 0
KLE1 141716Z 26006KT 16/01 A3013 RMK A01 T01570006  RH  036%=      5-min Rain = 0
KLE1 141717Z 26008KT 16/01 A3013 RMK A01 T01590006  RH  035%=      5-min Rain = 0
KLE1 141718Z 25006KT 16/01 A3013 RMK A01 T01590005  RH  035%=      5-min Rain = 0
KLE1 141719Z 25006KT 16/01 A3013 RMK A01 T01600006  RH  035%=      5-min Rain = 0
KLE1 141720Z 26006KT 16/01 A3013 RMK A01 T01620006  RH  035%=      5-min Rain = 0
KLE1 141721Z 27006KT 16/01 A3013 RMK A01 T01610006  RH  035%=      5-min Rain = 0
KLE1 141722Z 27006KT 16/01 A3013 RMK A01 T01600006  RH  035%=      5-min Rain = 0
KLE1 141723Z 27006KT 16/01 A3013 RMK A01 T01600006  RH  035%=      5-min Rain = 0
KLE1 141724Z 27006KT 16/01 A3013 RMK A01 T01600006  RH  035%=      5-min Rain = 0
KLE1 141725Z 27006KT 16/01 A3013 RMK A01 T01600007  RH  035%=      5-min Rain = 0
KLE1 141726Z 27007KT 16/01 A3013 RMK A01 T01620006  RH  035%=      5-min Rain = 0
KLE1 141727Z 26007KT 16/01 A3013 RMK A01 T01640006  RH  034%=      5-min Rain = 0
KLE1 141728Z 26006KT 16/01 A3013 RMK A01 T01640006  RH  034%=      5-min Rain = 0
KLE1 141729Z 28006KT 16/01 A3013 RMK A01 T01630006  RH  034%=      5-min Rain = 0
KLE1 141730Z 27006KT 16/01 A3013 RMK A01 T01640006  RH  034%=      5-min Rain = 0
KLE1 141731Z 27005KT 17/01 A3013 RMK A01 T01650006  RH  034%=      5-min Rain = 0
KLE1 141732Z 28006KT 17/01 A3013 RMK A01 T01660005  RH  034%=      5-min Rain = 0
KLE1 141733Z 27006KT 17/01 A3013 RMK A01 T01670005  RH  033%=      5-min Rain = 0
KLE1 141734Z 27004KT 17/01 A3012 RMK A01 T01670005  RH  033%=      5-min Rain = 0
KLE1 141735Z 29006KT 17/01 A3012 RMK A01 T01680006  RH  033%=      5-min Rain = 0
KLE1 141736Z 29005KT 17/01 A3012 RMK A01 T01690005  RH  033%=      5-min Rain = 0
KLE1 141737Z 28003KT 17/01 A3012 RMK A01 T01700006  RH  033%=      5-min Rain = 0
KLE1 141738Z 27005KT 17/01 A3012 RMK A01 T01710007  RH  033%=      5-min Rain = 0
KLE1 141739Z 26006KT 17/01 A3012 RMK A01 T01720005  RH  032%=      5-min Rain = 0
KLE1 141740Z 26006KT 17/01 A3012 RMK A01 T01720005  RH  032%=      5-min Rain = 0
KLE1 141741Z 26005KT 17/01 A3012 RMK A01 T01730005  RH  032%=      5-min Rain = 0
KLE1 141742Z 27006KT 17/01 A3012 RMK A01 T01740005  RH  032%=      5-min Rain = 0
KLE1 141743Z 27006KT 18/00 A3012 RMK A01 T01760004  RH  031%=      5-min Rain = 0
KLE1 141744Z 27005KT 18/01 A3012 RMK A01 T01750005  RH  032%=      5-min Rain = 0
KLE1 141745Z 27006KT 18/01 A3012 RMK A01 T01760006  RH  032%=      5-min Rain = 0
KLE1 141746Z 27006KT 18/01 A3012 RMK A01 T01760005  RH  031%=      5-min Rain = 0
KLE1 141747Z 27005KT 18/01 A3012 RMK A01 T01770005  RH  031%=      5-min Rain = 0
KLE1 141748Z 27006KT 18/01 A3012 RMK A01 T01780005  RH  031%=      5-min Rain = 0
KLE1 141749Z 28006KT 18/01 A3012 RMK A01 T01800005  RH  031%=      5-min Rain = 0
KLE1 141750Z 26005KT 18/01 A3012 RMK A01 T01820007  RH  031%=      5-min Rain = 0
KLE1 141751Z 27005KT 18/01 A3011 RMK A01 T01830007  RH  030%=      5-min Rain = 0
KLE1 141752Z 27006KT 19/01 A3011 RMK A01 T01850006  RH  030%=      5-min Rain = 0
KLE1 141753Z 26006KT 19/01 A3011 RMK A01 T01870005  RH  029%=      5-min Rain = 0
KLE1 141754Z 27005KT 19/01 A3011 RMK A01 T01900005  RH  029%=      5-min Rain = 0
KLE1 141755Z 28004KT 19/01 A3011 RMK A01 T01910006  RH  029%=      5-min Rain = 0
KLE1 141756Z 29005KT 19/01 A3011 RMK A01 T01940006  RH  028%=      5-min Rain = 0
KLE1 141757Z 28005KT 20/01 A3011 RMK A01 T01980008  RH  028%=      5-min Rain = 0
KLE1 141758Z 29005KT 20/01 A3011 RMK A01 T02010008  RH  027%=      5-min Rain = 0
KLE1 141759Z 29005KT 20/01 A301 RMK A01 T02040008  RH  027%=      5-min Rain = 0
KLE1 141800Z 27006KT 21/01 A301 RMK A01 T02060006  RH  026%=      5-min Rain = 0
KLE1 141801Z 29006KT 21/01 A301 RMK A01 T02080006  RH  026%=      5-min Rain = 0
KLE1 141802Z 27007KT 21/01 A301 RMK A01 T02090005  RH  026%=      5-min Rain = 0
KLE1 141803Z 28008KT 21/01 A301 RMK A01 T02110005  RH  025%=      5-min Rain = 0
KLE1 141804Z 27006KT 21/01 A301 RMK A01 T02120005  RH  025%=      5-min Rain = 0
KLE1 141805Z 27006KT 22/01 A301 RMK A01 T02150007  RH  025%=      5-min Rain = 0
KLE1 141806Z 29006KT 22/01 A301 RMK A01 T02180008  RH  025%=      5-min Rain = 0
KLE1 141807Z 28009KT 22/01 A301 RMK A01 T02210006  RH  024%=      5-min Rain = 0
KLE1 141808Z 27009KT 22/00 A3009 RMK A01 T02230003  RH  023%=      5-min Rain = 0
KLE1 141809Z 26008KT 22/00 A3009 RMK A01 T02240003  RH  023%=      5-min Rain = 0
KLE1 141810Z 26009KT 23/00 A3009 RMK A01 T02270003  RH  023%=      5-min Rain = 0
KLE1 141811Z 26010KT 23/00 A3009 RMK A01 T02280002  RH  022%=      5-min Rain = 0
KLE1 141812Z 26010KT 23/00 A3009 RMK A01 T02290001  RH  022%=      5-min Rain = 0
KLE1 141813Z 25011KT 23/00 A3009 RMK A01 T02300001  RH  022%=      5-min Rain = 0
KLE1 141814Z 25009KT 23/00 A3009 RMK A01 T02310002  RH  022%=      5-min Rain = 0
KLE1 141815Z 26010KT 23/00 A3009 RMK A01 T02310001  RH  022%=      5-min Rain = 0
KLE1 141816Z 25009KT 23/00 A3009 RMK A01 T02330001  RH  022%=      5-min Rain = 0
KLE1 141817Z 26011KT 24/00 A3009 RMK A01 T02350001  RH  021%=      5-min Rain = 0
KLE1 141818Z 26012KT 24/M00 A3009 RMK A01 T02381001  RH  021%=      5-min Rain = 0
KLE1 141819Z 25011KT 24/M00 A3009 RMK A01 T02381002  RH  020%=      5-min Rain = 0
KLE1 141820Z 27010KT 24/00 A3009 RMK A01 T023900-0  RH  021%=      5-min Rain = 0
KLE1 141821Z 27012KT 24/00 A3008 RMK A01 T02420000  RH  020%=      5-min Rain = 0
KLE1 141822Z 27010KT 24/M00 A3008 RMK A01 T02441001  RH  020%=      5-min Rain = 0
KLE1 141823Z 27012KT 25/00 A3008 RMK A01 T02470001  RH  020%=      5-min Rain = 0
KLE1 141824Z 27013KT 25/M00 A3008 RMK A01 T02471004  RH  019%=      5-min Rain = 0
KLE1 141825Z 27012KT 24/M01 A3008 RMK A01 T02431006  RH  019%=      5-min Rain = 0
KLE1 141826Z 27010KT 24/M01 A3008 RMK A01 T02431005  RH  019%=      5-min Rain = 0
KLE1 141827Z 27011KT 24/M01 A3008 RMK A01 T02431005  RH  019%=      5-min Rain = 0
KLE1 141828Z 27011KT 24/M00 A3008 RMK A01 T02441004  RH  019%=      5-min Rain = 0
KLE1 141829Z 27011KT 25/M00 A3008 RMK A01 T02461004  RH  019%=      5-min Rain = 0
KLE1 141830Z 27012KT 25/M01 A3008 RMK A01 T02471005  RH  019%=      5-min Rain = 0
KLE1 141831Z 26011KT 25/M01 A3008 RMK A01 T02481005  RH  019%=      5-min Rain = 0
KLE1 141832Z 26011KT 25/M01 A3008 RMK A01 T02491007  RH  019%=      5-min Rain = 0
KLE1 141833Z 26014KT 25/M01 A3008 RMK A01 T02471007  RH  019%=      5-min Rain = 0
KLE1 141834Z 27012KT 25/M01 A3007 RMK A01 T02461007  RH  019%=      5-min Rain = 0
KLE1 141835Z 26011KT 25/M01 A3007 RMK A01 T02451008  RH  019%=      5-min Rain = 0
KLE1 141836Z 27012KT 24/M01 A3007 RMK A01 T02441008  RH  019%=      5-min Rain = 0
KLE1 141837Z 26012KT 25/M01 A3007 RMK A01 T02451007  RH  019%=      5-min Rain = 0
KLE1 141838Z 25009KT 25/M01 A3007 RMK A01 T02451007  RH  019%=      5-min Rain = 0
KLE1 141839Z 26009KT 25/M01 A3007 RMK A01 T02471006  RH  019%=      5-min Rain = 0
KLE1 141840Z 25011KT 25/M01 A3007 RMK A01 T02491005  RH  019%=      5-min Rain = 0
KLE1 141841Z 27009KT 25/M01 A3007 RMK A01 T02501007  RH  018%=      5-min Rain = 0
KLE1 141842Z 26009KT 25/M01 A3007 RMK A01 T02481007  RH  019%=      5-min Rain = 0
KLE1 141843Z 26009KT 25/M01 A3007 RMK A01 T02481007  RH  019%=      5-min Rain = 0
KLE1 141844Z 26008KT 25/M01 A3007 RMK A01 T02501005  RH  019%=      5-min Rain = 0
KLE1 141845Z 26009KT 25/M01 A3007 RMK A01 T02531005  RH  018%=      5-min Rain = 0
KLE1 141846Z 26011KT 25/M01 A3007 RMK A01 T02541006  RH  018%=      5-min Rain = 0
KLE1 141847Z 26008G14KT 25/M01 A3007 RMK A01 T02541007  RH  018%=      5-min Rain = 0
KLE1 141848Z 25011KT 25/M01 A3007 RMK A01 T02541007  RH  018%=      5-min Rain = 0
KLE1 141849Z 25011KT 26/M01 A3007 RMK A01 T02561008  RH  018%=      5-min Rain = 0
KLE1 141850Z 25009KT 26/M01 A3007 RMK A01 T02581007  RH  017%=      5-min Rain = 0
KLE1 141851Z 25013KT 26/M01 A3007 RMK A01 T02611007  RH  017%=      5-min Rain = 0
KLE1 141852Z 24015KT 26/M01 A3007 RMK A01 T02611009  RH  017%=      5-min Rain = 0
KLE1 141853Z 23012KT 26/M01 A3006 RMK A01 T02631010  RH  017%=      5-min Rain = 0
KLE1 141854Z 24011KT 27/M01 A3006 RMK A01 T02651010  RH  016%=      5-min Rain = 0
KLE1 141855Z 22010KT 27/M01 A3006 RMK A01 T02651010  RH  016%=      5-min Rain = 0
KLE1 141856Z 24008KT 27/M01 A3006 RMK A01 T02661008  RH  017%=      5-min Rain = 0
KLE1 141857Z 25009KT 27/M01 A3006 RMK A01 T02681007  RH  016%=      5-min Rain = 0
KLE1 141858Z 23010KT 27/M01 A3006 RMK A01 T02681009  RH  016%=      5-min Rain = 0
KLE1 141859Z 25009KT 27/M01 A3006 RMK A01 T02651011  RH  016%=      5-min Rain = 0
KLE1 141900Z 26011KT 27/M01 A3006 RMK A01 T02671008  RH  017%=      5-min Rain = 0
KLE1 141901Z 25011KT 27/M01 A3006 RMK A01 T02691009  RH  016%=      5-min Rain = 0
KLE1 141902Z 26012KT 27/M01 A3006 RMK A01 T02691012  RH  016%=      5-min Rain = 0
KLE1 141903Z 24008KT 27/M01 A3005 RMK A01 T02671014  RH  016%=      5-min Rain = 0
KLE1 141904Z 23009KT 27/M01 A3005 RMK A01 T02671011  RH  016%=      5-min Rain = 0
KLE1 141905Z 22010KT 27/M01 A3005 RMK A01 T02701011  RH  016%=      5-min Rain = 0
KLE1 141906Z 23009KT 27/M01 A3005 RMK A01 T02711012  RH  016%=      5-min Rain = 0
KLE1 141907Z 22010KT 27/M01 A3005 RMK A01 T02741011  RH  016%=      5-min Rain = 0
KLE1 141908Z 24015G20KT 28/M01 A3005 RMK A01 T02761014  RH  015%=      5-min Rain = 0
KLE1 141909Z 23016KT 28/M02 A3005 RMK A01 T02771019  RH  014%=      5-min Rain = 0
KLE1 141910Z 22011KT 28/M01 A3005 RMK A01 T02781012  RH  015%=      5-min Rain = 0
KLE1 141911Z 23013KT 28/M01 A3005 RMK A01 T02781013  RH  015%=      5-min Rain = 0
KLE1 141912Z 22013KT 28/M02 A3004 RMK A01 T02811016  RH  014%=      5-min Rain = 0
KLE1 141913Z 22015KT 28/M02 A3004 RMK A01 T02831020  RH  014%=      5-min Rain = 0
KLE1 141914Z 22015KT 28/M02 A3004 RMK A01 T02771023  RH  014%=      5-min Rain = 0
KLE1 141915Z 22013KT 27/M02 A3004 RMK A01 T02731024  RH  014%=      5-min Rain = 0
KLE1 141916Z 23013KT 28/M02 A3004 RMK A01 T02751022  RH  014%=      5-min Rain = 0
KLE1 141917Z 22015KT 28/M02 A3004 RMK A01 T02801020  RH  014%=      5-min Rain = 0
KLE1 141918Z 22016KT 28/M02 A3004 RMK A01 T02811022  RH  014%=      5-min Rain = 0
KLE1 141919Z 23016KT 28/M02 A3004 RMK A01 T02801021  RH  014%=      5-min Rain = 0
KLE1 141920Z 23016KT 28/M02 A3004 RMK A01 T02791020  RH  014%=      5-min Rain = 0
KLE1 141921Z 23015KT 28/M02 A3003 RMK A01 T02791019  RH  014%=      5-min Rain = 0
KLE1 141922Z 24014KT 28/M02 A3003 RMK A01 T02771020  RH  014%=      5-min Rain = 0
KLE1 141923Z 24012KT 28/M02 A3003 RMK A01 T02771018  RH  014%=      5-min Rain = 0
KLE1 141924Z 23013KT 28/M02 A3003 RMK A01 T02781018  RH  014%=      5-min Rain = 0
KLE1 141925Z 24013KT 28/M02 A3003 RMK A01 T02791018  RH  014%=      5-min Rain = 0
KLE1 141926Z 24014KT 28/M02 A3003 RMK A01 T02801019  RH  014%=      5-min Rain = 0
KLE1 141927Z 25015KT 28/M02 A3003 RMK A01 T02811018  RH  014%=      5-min Rain = 0
KLE1 141928Z 22012KT 28/M02 A3003 RMK A01 T02821019  RH  014%=      5-min Rain = 0
KLE1 141929Z 24012KT 28/M02 A3003 RMK A01 T02821018  RH  014%=      5-min Rain = 0
KLE1 141930Z 25017G22KT 28/M02 A3003 RMK A01 T02841020  RH  014%=      5-min Rain = 0
KLE1 141931Z 23013KT 28/M03 A3003 RMK A01 T02821025  RH  013%=      5-min Rain = 0
KLE1 141932Z 23008KT 28/M03 A3003 RMK A01 T02801025  RH  013%=      5-min Rain = 0
KLE1 141933Z 24010KT 28/M02 A3003 RMK A01 T02801024  RH  014%=      5-min Rain = 0
KLE1 141934Z 26014KT 28/M02 A3003 RMK A01 T02801018  RH  014%=      5-min Rain = 0
KLE1 141935Z 25017G22KT 28/M01 A3003 RMK A01 T02821012  RH  015%=      5-min Rain = 0
KLE1 141936Z 24016KT 28/M02 A3003 RMK A01 T02841020  RH  014%=      5-min Rain = 0
KLE1 141937Z 23013KT 28/M02 A3003 RMK A01 T02821023  RH  014%=      5-min Rain = 0
KLE1 141938Z 23012KT 28/M02 A3002 RMK A01 T02821022  RH  014%=      5-min Rain = 0
KLE1 141939Z 24014KT 28/M02 A3002 RMK A01 T02831020  RH  014%=      5-min Rain = 0
KLE1 141940Z 23015KT 28/M02 A3002 RMK A01 T02831019  RH  014%=      5-min Rain = 0
KLE1 141941Z 25017KT 28/M02 A3002 RMK A01 T02811018  RH  014%=      5-min Rain = 0
KLE1 141942Z 24016KT 28/M02 A3002 RMK A01 T02791018  RH  014%=      5-min Rain = 0
KLE1 141943Z 24015KT 28/M02 A3002 RMK A01 T02791018  RH  014%=      5-min Rain = 0
KLE1 141944Z 24014KT 28/M02 A3002 RMK A01 T02821017  RH  014%=      5-min Rain = 0
KLE1 141945Z 24015KT 28/M02 A3002 RMK A01 T02831018  RH  014%=      5-min Rain = 0
KLE1 141946Z 24011KT 28/M02 A3002 RMK A01 T02821019  RH  014%=      5-min Rain = 0
KLE1 141947Z 24011G16KT 28/M02 A3002 RMK A01 T02831019  RH  014%=      5-min Rain = 0
KLE1 141948Z 25011KT 28/M02 A3002 RMK A01 T02821020  RH  014%=      5-min Rain = 0
KLE1 141949Z 26010KT 28/M02 A3001 RMK A01 T02831017  RH  014%=      5-min Rain = 0
KLE1 141950Z 27010KT 28/M02 A3001 RMK A01 T02831017  RH  014%=      5-min Rain = 0
KLE1 141951Z 26010KT 28/M02 A3001 RMK A01 T02821016  RH  014%=      5-min Rain = 0
KLE1 141952Z 23018KT 28/M02 A3001 RMK A01 T02831021  RH  014%=      5-min Rain = 0
KLE1 141953Z 24012G17KT 28/M03 A3001 RMK A01 T02841027  RH  013%=      5-min Rain = 0
KLE1 141954Z 25013KT 29/M02 A3001 RMK A01 T02851019  RH  014%=      5-min Rain = 0
KLE1 141955Z 24013KT 29/M02 A3001 RMK A01 T02901021  RH  013%=      5-min Rain = 0
KLE1 141956Z 26014KT 29/M02 A3001 RMK A01 T02911023  RH  013%=      5-min Rain = 0
KLE1 141957Z 25012KT 29/M02 A3001 RMK A01 T02911024  RH  013%=      5-min Rain = 0
KLE1 141958Z 26009KT 29/M02 A3001 RMK A01 T02901023  RH  013%=      5-min Rain = 0
KLE1 141959Z 23008KT 29/M03 A30 RMK A01 T02911026  RH  013%=      5-min Rain = 0
KLE1 142000Z 23010KT 29/M03 A30 RMK A01 T02901028  RH  012%=      5-min Rain = 0
KLE1 142001Z 22012G17KT 29/M03 A30 RMK A01 T02891026  RH  013%=      5-min Rain = 0
KLE1 142002Z 24012KT 29/M03 A30 RMK A01 T02901028  RH  012%=      5-min Rain = 0
KLE1 142003Z 25014G20KT 29/M03 A30 RMK A01 T02911028  RH  012%=      5-min Rain = 0
KLE1 142004Z 24014KT 29/M03 A30 RMK A01 T02901031  RH  012%=      5-min Rain = 0
KLE1 142005Z 24014KT 29/M03 A30 RMK A01 T02901033  RH  012%=      5-min Rain = 0
KLE1 142006Z 22012KT 29/M04 A30 RMK A01 T02901038  RH  012%=      5-min Rain = 0
KLE1 142007Z 23014KT 29/M04 A30 RMK A01 T02911037  RH  012%=      5-min Rain = 0
KLE1 142008Z 22016KT 29/M04 A30 RMK A01 T02931040  RH  011%=      5-min Rain = 0
KLE1 142009Z 23014KT 29/M04 A30 RMK A01 T02931041  RH  011%=      5-min Rain = 0
KLE1 142010Z 23017KT 29/M04 A30 RMK A01 T02921041  RH  011%=      5-min Rain = 0
KLE1 142011Z 23014KT 29/M04 A30 RMK A01 T02921039  RH  011%=      5-min Rain = 0
KLE1 142012Z 22016KT 29/M04 A30 RMK A01 T02931039  RH  011%=      5-min Rain = 0
KLE1 142013Z 21014KT 29/M04 A30 RMK A01 T02931041  RH  011%=      5-min Rain = 0
KLE1 142014Z 22013KT 29/M04 A30 RMK A01 T02931040  RH  011%=      5-min Rain = 0
KLE1 142015Z 21012G18KT 29/M04 A30 RMK A01 T02941039  RH  011%=      5-min Rain = 0
KLE1 142016Z 22017KT 30/M04 A2999 RMK A01 T02961039  RH  011%=      5-min Rain = 0
KLE1 142017Z 23015KT 30/M04 A2999 RMK A01 T02961041  RH  011%=      5-min Rain = 0
KLE1 142018Z 24015KT 30/M04 A2999 RMK A01 T02951039  RH  011%=      5-min Rain = 0
KLE1 142019Z 25019KT 30/M04 A2999 RMK A01 T02971041  RH  011%=      5-min Rain = 0
KLE1 142020Z 24016G21KT 30/M05 A2999 RMK A01 T02951047  RH  010%=      5-min Rain = 0
KLE1 142021Z 23016KT 29/M05 A2999 RMK A01 T02911049  RH  011%=      5-min Rain = 0
KLE1 142022Z 23016KT 29/M04 A2999 RMK A01 T02931044  RH  011%=      5-min Rain = 0
KLE1 142023Z 23017KT 30/M04 A2999 RMK A01 T02951043  RH  011%=      5-min Rain = 0
KLE1 142024Z 23017KT 30/M05 A2999 RMK A01 T02961045  RH  011%=      5-min Rain = 0
KLE1 142025Z 24017G23KT 30/M05 A2999 RMK A01 T02951045  RH  011%=      5-min Rain = 0
KLE1 142026Z 24018KT 30/M05 A2999 RMK A01 T02971051  RH  010%=      5-min Rain = 0
KLE1 142027Z 24019KT 30/M05 A2999 RMK A01 T02961053  RH  010%=      5-min Rain = 0
KLE1 142028Z 23016G21KT 30/M05 A2999 RMK A01 T02951051  RH  010%=      5-min Rain = 0
KLE1 142029Z 22016KT 30/M05 A2999 RMK A01 T02961051  RH  010%=      5-min Rain = 0
KLE1 142030Z 24017G22KT 30/M05 A2999 RMK A01 T02951050  RH  010%=      5-min Rain = 0
KLE1 142031Z 25015KT 30/M05 A2999 RMK A01 T02961046  RH  011%=      5-min Rain = 0
KLE1 142032Z 26014G19KT 30/M05 A2998 RMK A01 T02971045  RH  011%=      5-min Rain = 0
KLE1 142033Z 24013KT 30/M05 A2998 RMK A01 T02981047  RH  010%=      5-min Rain = 0
KLE1 142034Z 23012KT 30/M05 A2998 RMK A01 T03011049  RH  010%=      5-min Rain = 0
KLE1 142035Z 24016G21KT 30/M05 A2998 RMK A01 T03021053  RH  010%=      5-min Rain = 0
KLE1 142036Z 23021KT 30/M05 A2998 RMK A01 T03011053  RH  010%=      5-min Rain = 0
KLE1 142037Z 24018KT 30/M05 A2998 RMK A01 T03001054  RH  010%=      5-min Rain = 0
KLE1 142038Z 22017KT 30/M05 A2998 RMK A01 T02991054  RH  010%=      5-min Rain = 0
KLE1 142039Z 22015KT 30/M05 A2998 RMK A01 T02981054  RH  010%=      5-min Rain = 0
KLE1 142040Z 24013KT 30/M05 A2998 RMK A01 T02981052  RH  010%=      5-min Rain = 0
KLE1 142041Z 23013KT 30/M05 A2998 RMK A01 T02991049  RH  010%=      5-min Rain = 0
KLE1 142042Z 23012KT 30/M05 A2998 RMK A01 T02991049  RH  010%=      5-min Rain = 0
KLE1 142043Z 24013KT 30/M05 A2998 RMK A01 T03001049  RH  010%=      5-min Rain = 0
KLE1 142044Z 25019KT 30/M05 A2998 RMK A01 T03001051  RH  010%=      5-min Rain = 0
KLE1 142045Z 26020KT 30/M05 A2997 RMK A01 T02981053  RH  010%=      5-min Rain = 0
KLE1 142046Z 26018KT 30/M05 A2997 RMK A01 T02971051  RH  010%=      5-min Rain = 0
KLE1 142047Z 25015KT 30/M05 A2997 RMK A01 T02971049  RH  010%=      5-min Rain = 0
KLE1 142048Z 25015KT 30/M05 A2997 RMK A01 T02991048  RH  010%=      5-min Rain = 0
KLE1 142049Z 24015KT 30/M05 A2997 RMK A01 T03011048  RH  010%=      5-min Rain = 0
KLE1 142050Z 22016G21KT 30/M05 A2997 RMK A01 T03011049  RH  010%=      5-min Rain = 0
KLE1 142051Z 24015G24KT 30/M05 A2997 RMK A01 T02991052  RH  010%=      5-min Rain = 0
KLE1 142052Z 23017G23KT 30/M05 A2997 RMK A01 T02981049  RH  010%=      5-min Rain = 0
KLE1 142053Z 25016KT 30/M05 A2997 RMK A01 T02971051  RH  010%=      5-min Rain = 0
KLE1 142054Z 24015KT 30/M05 A2997 RMK A01 T02961050  RH  010%=      5-min Rain = 0
KLE1 142055Z 23015KT 30/M05 A2997 RMK A01 T02981048  RH  010%=      5-min Rain = 0
KLE1 142056Z 24014KT 30/M05 A2996 RMK A01 T03011046  RH  010%=      5-min Rain = 0
KLE1 142057Z 24016KT 30/M05 A2996 RMK A01 T03021046  RH  010%=      5-min Rain = 0
KLE1 142058Z 24014KT 30/M05 A2997 RMK A01 T03021047  RH  010%=      5-min Rain = 0
KLE1 142059Z 23017KT 30/M05 A2997 RMK A01 T03031047  RH  010%=      5-min Rain = 0
KLE1 142100Z 23016KT 30/M05 A2997 RMK A01 T03031051  RH  010%=      5-min Rain = 0
KLE1 142101Z 23016KT 30/M05 A2997 RMK A01 T03011051  RH  010%=      5-min Rain = 0
KLE1 142102Z 22016G21KT 30/M05 A2997 RMK A01 T03021050  RH  010%=      5-min Rain = 0
KLE1 142103Z 23018KT 30/M05 A2997 RMK A01 T03031052  RH  010%=      5-min Rain = 0
KLE1 142104Z 22015KT 30/M05 A2997 RMK A01 T03011053  RH  010%=      5-min Rain = 0
KLE1 142105Z 21014KT 30/M05 A2997 RMK A01 T03021051  RH  010%=      5-min Rain = 0
KLE1 142106Z 23015KT 30/M05 A2996 RMK A01 T03011053  RH  010%=      5-min Rain = 0
KLE1 142107Z 22015G20KT 30/M05 A2996 RMK A01 T03001053  RH  010%=      5-min Rain = 0
KLE1 142108Z 22019KT 30/M05 A2996 RMK A01 T03001054  RH  010%=      5-min Rain = 0
KLE1 142109Z 22017KT 30/M05 A2996 RMK A01 T03001054  RH  010%=      5-min Rain = 0
KLE1 142110Z 22020KT 30/M05 A2996 RMK A01 T03021054  RH  010%=      5-min Rain = 0
KLE1 142111Z 22019G25KT 30/M06 A2996 RMK A01 T03001057  RH  009%=      5-min Rain = 0
KLE1 142112Z 22016KT 30/M06 A2996 RMK A01 T02991057  RH  010%=      5-min Rain = 0
KLE1 142113Z 22014G21KT 30/M06 A2996 RMK A01 T02991057  RH  010%=      5-min Rain = 0
KLE1 142114Z 23019KT 30/M06 A2996 RMK A01 T02991058  RH  009%=      5-min Rain = 0
KLE1 142115Z 22020KT 30/M06 A2996 RMK A01 T02991057  RH  009%=      5-min Rain = 0
KLE1 142116Z 21022KT 30/M06 A2995 RMK A01 T02991057  RH  010%=      5-min Rain = 0
KLE1 142117Z 23020KT 30/M05 A2996 RMK A01 T03011054  RH  010%=      5-min Rain = 0
KLE1 142118Z 24017KT 30/M06 A2996 RMK A01 T02991057  RH  009%=      5-min Rain = 0
KLE1 142119Z 25015KT 30/M06 A2996 RMK A01 T02981057  RH  010%=      5-min Rain = 0
KLE1 142120Z 24018KT 30/M06 A2996 RMK A01 T02981055  RH  010%=      5-min Rain = 0
KLE1 142121Z 24019KT 30/M05 A2995 RMK A01 T02991054  RH  010%=      5-min Rain = 0
KLE1 142122Z 24016KT 30/M05 A2996 RMK A01 T03001054  RH  010%=      5-min Rain = 0
KLE1 142123Z 23015KT 30/M06 A2996 RMK A01 T02991055  RH  010%=      5-min Rain = 0
KLE1 142124Z 23014KT 30/M06 A2996 RMK A01 T02991055  RH  010%=      5-min Rain = 0
KLE1 142125Z 24017KT 30/M05 A2996 RMK A01 T03001054  RH  010%=      5-min Rain = 0
KLE1 142126Z 24014KT 30/M05 A2996 RMK A01 T03011053  RH  010%=      5-min Rain = 0
KLE1 142127Z 23016G23KT 30/M05 A2995 RMK A01 T03021052  RH  010%=      5-min Rain = 0
KLE1 142128Z 22018KT 30/M05 A2995 RMK A01 T03031054  RH  009%=      5-min Rain = 0
KLE1 142129Z 23018G23KT 30/M06 A2995 RMK A01 T03031055  RH  009%=      5-min Rain = 0
KLE1 142130Z 22021KT 30/M06 A2995 RMK A01 T03031055  RH  009%=      5-min Rain = 0
KLE1 142131Z 22018KT 30/M06 A2995 RMK A01 T03011056  RH  009%=      5-min Rain = 0
KLE1 142132Z 22016KT 30/M06 A2995 RMK A01 T03011055  RH  010%=      5-min Rain = 0
KLE1 142133Z 22018KT 30/M05 A2995 RMK A01 T03011053  RH  010%=      5-min Rain = 0
KLE1 142134Z 22015KT 30/M05 A2995 RMK A01 T03011054  RH  010%=      5-min Rain = 0
KLE1 142135Z 22015G21KT 30/M05 A2995 RMK A01 T03021053  RH  010%=      5-min Rain = 0
KLE1 142136Z 23020KT 30/M05 A2995 RMK A01 T03031054  RH  010%=      5-min Rain = 0
KLE1 142137Z 22016KT 30/M06 A2995 RMK A01 T03011056  RH  009%=      5-min Rain = 0
KLE1 142138Z 22018KT 30/M06 A2995 RMK A01 T03001055  RH  010%=      5-min Rain = 0
KLE1 142139Z 21017KT 30/M05 A2995 RMK A01 T03001052  RH  010%=      5-min Rain = 0
KLE1 142140Z 22021KT 30/M05 A2995 RMK A01 T03011052  RH  010%=      5-min Rain = 0
KLE1 142141Z 22018KT 30/M05 A2995 RMK A01 T03001052  RH  010%=      5-min Rain = 0
KLE1 142142Z 22017KT 30/M05 A2995 RMK A01 T02991052  RH  010%=      5-min Rain = 0
KLE1 142143Z 22018KT 30/M05 A2995 RMK A01 T02971052  RH  010%=      5-min Rain = 0
KLE1 142144Z 23019KT 30/M05 A2994 RMK A01 T02981051  RH  010%=      5-min Rain = 0
KLE1 142145Z 21016KT 30/M05 A2994 RMK A01 T02991049  RH  010%=      5-min Rain = 0
KLE1 142146Z 22021KT 30/M05 A2994 RMK A01 T03021047  RH  010%=      5-min Rain = 0
KLE1 142147Z 22018KT 30/M05 A2995 RMK A01 T03011048  RH  010%=      5-min Rain = 0
KLE1 142148Z 23018KT 30/M05 A2995 RMK A01 T03001049  RH  010%=      5-min Rain = 0
KLE1 142149Z 22019KT 30/M05 A2994 RMK A01 T03001050  RH  010%=      5-min Rain = 0
KLE1 142150Z 23015KT 30/M05 A2994 RMK A01 T02991051  RH  010%=      5-min Rain = 0
KLE1 142151Z 23016KT 30/M05 A2994 RMK A01 T03001049  RH  010%=      5-min Rain = 0
KLE1 142152Z 23017KT 30/M05 A2994 RMK A01 T03011049  RH  010%=      5-min Rain = 0
KLE1 142153Z 23017KT 30/M05 A2994 RMK A01 T03011049  RH  010%=      5-min Rain = 0
KLE1 142154Z 23017KT 30/M05 A2994 RMK A01 T03001049  RH  010%=      5-min Rain = 0
KLE1 142155Z 23015KT 30/M05 A2994 RMK A01 T02991049  RH  010%=      5-min Rain = 0
KLE1 142156Z 23016KT 30/M05 A2994 RMK A01 T02981049  RH  010%=      5-min Rain = 0
KLE1 142157Z 23014KT 30/M05 A2994 RMK A01 T02981048  RH  010%=      5-min Rain = 0
KLE1 142158Z 22019KT 30/M05 A2994 RMK A01 T03001047  RH  010%=      5-min Rain = 0
KLE1 142159Z 22017KT 30/M05 A2994 RMK A01 T03001049  RH  010%=      5-min Rain = 0
KLE1 142200Z 22016KT 30/M05 A2994 RMK A01 T02991049  RH  010%=      5-min Rain = 0
KLE1 142201Z 22015KT 30/M05 A2994 RMK A01 T02981049  RH  010%=      5-min Rain = 0
KLE1 142202Z 22015KT 30/M05 A2994 RMK A01 T02981048  RH  010%=      5-min Rain = 0
KLE1 142203Z 20015KT 30/M05 A2994 RMK A01 T02981047  RH  010%=      5-min Rain = 0
KLE1 142204Z 21016KT 30/M05 A2993 RMK A01 T02981046  RH  010%=      5-min Rain = 0
KLE1 142205Z 22020KT 30/M04 A2993 RMK A01 T02991044  RH  010%=      5-min Rain = 0
KLE1 142206Z 22021KT 30/M04 A2993 RMK A01 T03001043  RH  011%=      5-min Rain = 0
KLE1 142207Z 22020KT 30/M04 A2993 RMK A01 T03001043  RH  010%=      5-min Rain = 0
KLE1 142208Z 23018KT 30/M04 A2993 RMK A01 T03001043  RH  010%=      5-min Rain = 0
KLE1 142209Z 23016KT 30/M04 A2993 RMK A01 T03001044  RH  010%=      5-min Rain = 0
KLE1 142210Z 23017KT 30/M04 A2993 RMK A01 T03001044  RH  010%=      5-min Rain = 0
KLE1 142211Z 23016KT 30/M04 A2993 RMK A01 T03001044  RH  010%=      5-min Rain = 0
KLE1 142212Z 23019KT 30/M04 A2993 RMK A01 T03001043  RH  010%=      5-min Rain = 0
KLE1 142213Z 23021KT 30/M04 A2993 RMK A01 T03001043  RH  010%=      5-min Rain = 0
KLE1 142214Z 23021KT 30/M04 A2993 RMK A01 T02991043  RH  011%=      5-min Rain = 0
KLE1 142215Z 23018KT 30/M04 A2993 RMK A01 T02981042  RH  011%=      5-min Rain = 0
KLE1 142216Z 22017KT 30/M04 A2993 RMK A01 T02981042  RH  011%=      5-min Rain = 0
KLE1 142217Z 23016KT 30/M04 A2993 RMK A01 T02981042  RH  011%=      5-min Rain = 0
KLE1 142218Z 23013KT 30/M04 A2993 RMK A01 T02981042  RH  011%=      5-min Rain = 0
KLE1 142219Z 21015G20KT 30/M04 A2993 RMK A01 T02991041  RH  011%=      5-min Rain = 0
KLE1 142220Z 22017KT 30/M04 A2993 RMK A01 T03001040  RH  011%=      5-min Rain = 0
KLE1 142221Z 21015G20KT 30/M04 A2993 RMK A01 T02991038  RH  011%=      5-min Rain = 0
KLE1 142222Z 21017G26KT 30/M04 A2992 RMK A01 T02991038  RH  011%=      5-min Rain = 0
KLE1 142223Z 22024G30KT 30/M04 A2992 RMK A01 T02991037  RH  011%=      5-min Rain = 0
KLE1 142224Z 24019G26KT 30/M04 A2993 RMK A01 T02991036  RH  011%=      5-min Rain = 0
KLE1 142225Z 24019G24KT 30/M04 A2993 RMK A01 T03001035  RH  011%=      5-min Rain = 0
KLE1 142226Z 24018KT 30/M04 A2992 RMK A01 T03001035  RH  011%=      5-min Rain = 0
KLE1 142227Z 24019G24KT 30/M03 A2992 RMK A01 T03001034  RH  011%=      5-min Rain = 0
KLE1 142228Z 24020KT 30/M03 A2992 RMK A01 T03001034  RH  011%=      5-min Rain = 0
KLE1 142229Z 24017KT 30/M03 A2992 RMK A01 T02991034  RH  011%=      5-min Rain = 0
KLE1 142230Z 23019KT 30/M03 A2992 RMK A01 T02991034  RH  011%=      5-min Rain = 0
KLE1 142231Z 23018KT 30/M04 A2992 RMK A01 T02991035  RH  011%=      5-min Rain = 0
KLE1 142232Z 23015KT 30/M04 A2992 RMK A01 T02991035  RH  011%=      5-min Rain = 0
KLE1 142233Z 23020G25KT 30/M04 A2992 RMK A01 T03001035  RH  011%=      5-min Rain = 0
KLE1 142234Z 23017G23KT 30/M04 A2992 RMK A01 T03001036  RH  011%=      5-min Rain = 0
KLE1 142235Z 24018KT 30/M04 A2992 RMK A01 T02991036  RH  011%=      5-min Rain = 0
KLE1 142236Z 23016KT 30/M04 A2992 RMK A01 T03001035  RH  011%=      5-min Rain = 0
KLE1 142237Z 23017KT 30/M04 A2992 RMK A01 T03001035  RH  011%=      5-min Rain = 0
KLE1 142238Z 24016KT 30/M04 A2992 RMK A01 T02991035  RH  011%=      5-min Rain = 0
KLE1 142239Z 24019G25KT 30/M04 A2992 RMK A01 T02991035  RH  011%=      5-min Rain = 0
KLE1 142240Z 24018KT 30/M04 A2992 RMK A01 T02991037  RH  011%=      5-min Rain = 0
KLE1 142241Z 24018KT 30/M04 A2992 RMK A01 T02981037  RH  011%=      5-min Rain = 0
KLE1 142242Z 23017KT 30/M04 A2992 RMK A01 T02981035  RH  011%=      5-min Rain = 0
KLE1 142243Z 23018KT 30/M04 A2992 RMK A01 T02981035  RH  011%=      5-min Rain = 0
KLE1 142244Z 23016G21KT 30/M03 A2992 RMK A01 T02981034  RH  011%=      5-min Rain = 0
KLE1 142245Z 22017KT 30/M04 A2992 RMK A01 T02981035  RH  011%=      5-min Rain = 0
KLE1 142246Z 23015KT 30/M04 A2992 RMK A01 T02991035  RH  011%=      5-min Rain = 0
KLE1 142247Z 22013KT 30/M04 A2992 RMK A01 T02981035  RH  011%=      5-min Rain = 0
KLE1 142248Z 23014KT 30/M04 A2992 RMK A01 T02981035  RH  011%=      5-min Rain = 0
KLE1 142249Z 22015KT 30/M03 A2991 RMK A01 T02981034  RH  011%=      5-min Rain = 0
KLE1 142250Z 22016KT 30/M03 A2991 RMK A01 T02981033  RH  011%=      5-min Rain = 0
KLE1 142251Z 23017KT 30/M03 A2991 RMK A01 T02981032  RH  011%=      5-min Rain = 0
KLE1 142252Z 23017KT 30/M03 A2991 RMK A01 T02981031  RH  012%=      5-min Rain = 0
KLE1 142253Z 22019KT 30/M03 A2991 RMK A01 T02981031  RH  012%=      5-min Rain = 0
KLE1 142254Z 22014KT 30/M03 A2991 RMK A01 T02971031  RH  012%=      5-min Rain = 0
KLE1 142255Z 22013KT 30/M03 A2991 RMK A01 T02971030  RH  012%=      5-min Rain = 0
KLE1 142256Z 22012KT 30/M03 A2991 RMK A01 T02971029  RH  012%=      5-min Rain = 0
KLE1 142257Z 21014KT 30/M03 A2991 RMK A01 T02971029  RH  012%=      5-min Rain = 0
KLE1 142258Z 21017KT 30/M03 A2991 RMK A01 T02971027  RH  012%=      5-min Rain = 0
KLE1 142259Z 22013KT 30/M03 A2991 RMK A01 T02961025  RH  012%=      5-min Rain = 0
KLE1 142300Z 22016KT 30/M02 A2991 RMK A01 T02951023  RH  012%=      5-min Rain = 0
KLE1 142301Z 22012G17KT 30/M02 A2991 RMK A01 T02951023  RH  013%=      5-min Rain = 0
KLE1 142302Z 23017KT 29/M02 A2991 RMK A01 T02941022  RH  013%=      5-min Rain = 0
KLE1 142303Z 22018KT 29/M02 A2991 RMK A01 T02931020  RH  013%=      5-min Rain = 0
KLE1 142304Z 22017KT 29/M02 A2991 RMK A01 T02931019  RH  013%=      5-min Rain = 0
KLE1 142305Z 23019KT 29/M02 A2991 RMK A01 T02931017  RH  013%=      5-min Rain = 0
KLE1 142306Z 23015KT 29/M02 A2991 RMK A01 T02931016  RH  013%=      5-min Rain = 0
KLE1 142307Z 22014KT 29/M02 A2991 RMK A01 T02921016  RH  013%=      5-min Rain = 0
KLE1 142308Z 23012KT 29/M02 A2991 RMK A01 T02911016  RH  013%=      5-min Rain = 0
KLE1 142309Z 23015KT 29/M02 A299 RMK A01 T02911016  RH  014%=      5-min Rain = 0
KLE1 142310Z 23015KT 29/M02 A299 RMK A01 T02901016  RH  014%=      5-min Rain = 0
KLE1 142311Z 23013KT 29/M02 A299 RMK A01 T02891016  RH  014%=      5-min Rain = 0
KLE1 142312Z 23013KT 29/M02 A299 RMK A01 T02891015  RH  014%=      5-min Rain = 0
KLE1 142313Z 23014KT 29/M02 A299 RMK A01 T02881016  RH  014%=      5-min Rain = 0
KLE1 142314Z 22014KT 29/M02 A299 RMK A01 T02881016  RH  014%=      5-min Rain = 0
KLE1 142315Z 23013KT 29/M02 A299 RMK A01 T02871016  RH  014%=      5-min Rain = 0
KLE1 142316Z 23011KT 29/M02 A299 RMK A01 T02871016  RH  014%=      5-min Rain = 0
KLE1 142317Z 23011KT 29/M02 A299 RMK A01 T02861016  RH  014%=      5-min Rain = 0
KLE1 142318Z 22010KT 29/M02 A299 RMK A01 T02851016  RH  014%=      5-min Rain = 0
KLE1 142319Z 22009KT 28/M02 A299 RMK A01 T02841016  RH  014%=      5-min Rain = 0
KLE1 142320Z 23010KT 28/M02 A299 RMK A01 T02831017  RH  014%=      5-min Rain = 0
KLE1 142321Z 23009KT 28/M02 A299 RMK A01 T02821017  RH  014%=      5-min Rain = 0
KLE1 142322Z 22011KT 28/M02 A299 RMK A01 T02831016  RH  014%=      5-min Rain = 0
KLE1 142323Z 23011KT 28/M02 A299 RMK A01 T02831015  RH  014%=      5-min Rain = 0
KLE1 142324Z 23011KT 28/M02 A299 RMK A01 T02841015  RH  014%=      5-min Rain = 0
KLE1 142325Z 22010KT 28/M02 A299 RMK A01 T02841015  RH  014%=      5-min Rain = 0
KLE1 142326Z 22009KT 28/M01 A299 RMK A01 T02841014  RH  014%=      5-min Rain = 0
KLE1 142327Z 23009KT 28/M01 A299 RMK A01 T02831014  RH  014%=      5-min Rain = 0
KLE1 142328Z 23008KT 28/M01 A299 RMK A01 T02831014  RH  014%=      5-min Rain = 0
KLE1 142329Z 23008KT 28/M01 A299 RMK A01 T02821014  RH  014%=      5-min Rain = 0
KLE1 142330Z 22008KT 28/M02 A299 RMK A01 T02811015  RH  014%=      5-min Rain = 0
KLE1 142331Z 22008KT 28/M01 A299 RMK A01 T02801014  RH  015%=      5-min Rain = 0
KLE1 142332Z 22008KT 28/M01 A299 RMK A01 T02791014  RH  015%=      5-min Rain = 0
KLE1 142333Z 22009KT 28/M01 A299 RMK A01 T02781014  RH  015%=      5-min Rain = 0
KLE1 142334Z 22008KT 28/M01 A299 RMK A01 T02781013  RH  015%=      5-min Rain = 0
KLE1 142335Z 22008KT 28/M01 A299 RMK A01 T02771013  RH  015%=      5-min Rain = 0
KLE1 142336Z 22008KT 28/M01 A299 RMK A01 T02771013  RH  015%=      5-min Rain = 0
KLE1 142337Z 22008KT 28/M01 A299 RMK A01 T02761012  RH  015%=      5-min Rain = 0
KLE1 142338Z 22008KT 28/M01 A299 RMK A01 T02761012  RH  015%=      5-min Rain = 0
KLE1 142339Z 21008KT 28/M01 A299 RMK A01 T02761011  RH  015%=      5-min Rain = 0
KLE1 142340Z 21007KT 28/M01 A299 RMK A01 T02761011  RH  015%=      5-min Rain = 0
KLE1 142341Z 22007KT 28/M01 A299 RMK A01 T02751012  RH  015%=      5-min Rain = 0
KLE1 142342Z 22008KT 28/M01 A299 RMK A01 T02751011  RH  015%=      5-min Rain = 0
KLE1 142343Z 22008KT 27/M01 A299 RMK A01 T02741011  RH  015%=      5-min Rain = 0
KLE1 142344Z 22009KT 27/M01 A299 RMK A01 T02731011  RH  016%=      5-min Rain = 0
KLE1 142345Z 22008KT 27/M01 A299 RMK A01 T02731011  RH  016%=      5-min Rain = 0
KLE1 142346Z 22008KT 27/M01 A299 RMK A01 T02721011  RH  016%=      5-min Rain = 0
KLE1 142347Z 22008KT 27/M01 A299 RMK A01 T02711012  RH  016%=      5-min Rain = 0
KLE1 142348Z 22010KT 27/M01 A2989 RMK A01 T02711011  RH  016%=      5-min Rain = 0
KLE1 142349Z 22010KT 27/M01 A2989 RMK A01 T02721011  RH  016%=      5-min Rain = 0
KLE1 142350Z 22008KT 27/M01 A299 RMK A01 T02741010  RH  016%=      5-min Rain = 0
KLE1 142351Z 22008KT 27/M01 A2989 RMK A01 T02741010  RH  016%=      5-min Rain = 0
KLE1 142352Z 21008KT 27/M01 A2989 RMK A01 T02731011  RH  016%=      5-min Rain = 0
KLE1 142353Z 21008KT 27/M01 A2989 RMK A01 T02721011  RH  016%=      5-min Rain = 0
KLE1 142354Z 21009KT 27/M01 A2989 RMK A01 T02701011  RH  016%=      5-min Rain = 0
KLE1 142355Z 21009KT 27/M01 A2989 RMK A01 T02691011  RH  016%=      5-min Rain = 0
KLE1 142356Z 21009KT 27/M01 A2989 RMK A01 T02691011  RH  016%=      5-min Rain = 0
KLE1 142357Z 21010KT 27/M01 A2989 RMK A01 T02691011  RH  016%=      5-min Rain = 0
KLE1 142358Z 21010KT 27/M01 A2989 RMK A01 T02691009  RH  016%=      5-min Rain = 0
KLE1 142359Z 20011KT 27/M01 A2989 RMK A01 T02691010  RH  016%=      5-min Rain = 0
KLE1 150000Z 20009KT 27/M01 A2989 RMK A01 T02691009  RH  016%=      5-min Rain = 0
KLE1 150001Z 20010KT 27/M01 A299 RMK A01 T02691009  RH  016%=      5-min Rain = 0
KLE1 150002Z 20010KT 27/M01 A299 RMK A01 T02671010  RH  016%=      5-min Rain = 0
KLE1 150003Z 20010KT 27/M01 A299 RMK A01 T02661010  RH  016%=      5-min Rain = 0
KLE1 150004Z 20010KT 26/M01 A299 RMK A01 T02641010  RH  016%=      5-min Rain = 0
KLE1 150005Z 19009KT 26/M01 A299 RMK A01 T02631010  RH  017%=      5-min Rain = 0
KLE1 150006Z 18009KT 26/M01 A299 RMK A01 T02611011  RH  017%=      5-min Rain = 0
KLE1 150007Z 17009KT 26/M01 A299 RMK A01 T02601011  RH  017%=      5-min Rain = 0
KLE1 150008Z 17009KT 26/M01 A299 RMK A01 T02591010  RH  017%=      5-min Rain = 0
KLE1 150009Z 17011KT 26/M01 A299 RMK A01 T02581010  RH  017%=      5-min Rain = 0
KLE1 150010Z 17012G17KT 26/M01 A299 RMK A01 T02571008  RH  018%=      5-min Rain = 0
KLE1 150011Z 17012KT 26/M00 A2989 RMK A01 T02571004  RH  018%=      5-min Rain = 0
KLE1 150012Z 17016KT 26/00 A2989 RMK A01 T02570003  RH  019%=      5-min Rain = 0
KLE1 150013Z 18015KT 26/01 A2989 RMK A01 T02570007  RH  019%=      5-min Rain = 0
KLE1 150014Z 18014KT 26/01 A299 RMK A01 T02580008  RH  020%=      5-min Rain = 0
KLE1 150015Z 18013KT 26/01 A299 RMK A01 T02570008  RH  020%=      5-min Rain = 0
KLE1 150016Z 18014KT 26/01 A299 RMK A01 T02550008  RH  020%=      5-min Rain = 0
KLE1 150017Z 18014KT 26/01 A299 RMK A01 T02550009  RH  020%=      5-min Rain = 0
KLE1 150018Z 17014KT 25/01 A299 RMK A01 T02540010  RH  020%=      5-min Rain = 0
KLE1 150019Z 17017G22KT 25/01 A299 RMK A01 T02540011  RH  020%=      5-min Rain = 0
KLE1 150020Z 17018KT 26/01 A2989 RMK A01 T02550012  RH  020%=      5-min Rain = 0
KLE1 150021Z 17017KT 26/01 A299 RMK A01 T02560012  RH  020%=      5-min Rain = 0
KLE1 150022Z 18014KT 26/01 A299 RMK A01 T02560012  RH  020%=      5-min Rain = 0
KLE1 150023Z 17016KT 26/01 A299 RMK A01 T02560012  RH  020%=      5-min Rain = 0
KLE1 150024Z 17016KT 26/01 A299 RMK A01 T02550013  RH  021%=      5-min Rain = 0
KLE1 150025Z 17017KT 25/01 A299 RMK A01 T02540012  RH  021%=      5-min Rain = 0
KLE1 150026Z 17016KT 25/01 A299 RMK A01 T02540013  RH  021%=      5-min Rain = 0
KLE1 150027Z 17016KT 25/01 A299 RMK A01 T02530013  RH  021%=      5-min Rain = 0
KLE1 150028Z 17018G24KT 25/01 A299 RMK A01 T02530013  RH  021%=      5-min Rain = 0
KLE1 150029Z 18017KT 25/01 A299 RMK A01 T02530014  RH  021%=      5-min Rain = 0
KLE1 150030Z 18017KT 25/01 A299 RMK A01 T02530014  RH  021%=      5-min Rain = 0
KLE1 150031Z 17017KT 25/01 A299 RMK A01 T02530014  RH  021%=      5-min Rain = 0
KLE1 150032Z 18016KT 25/01 A299 RMK A01 T02530014  RH  021%=      5-min Rain = 0
KLE1 150033Z 18016KT 25/02 A299 RMK A01 T02520015  RH  021%=      5-min Rain = 0
KLE1 150034Z 18017KT 25/02 A299 RMK A01 T02510015  RH  021%=      5-min Rain = 0
KLE1 150035Z 18016KT 25/02 A299 RMK A01 T02500015  RH  022%=      5-min Rain = 0
KLE1 150036Z 18014KT 25/02 A299 RMK A01 T02490016  RH  022%=      5-min Rain = 0
KLE1 150037Z 18015KT 25/02 A299 RMK A01 T02480016  RH  022%=      5-min Rain = 0
KLE1 150038Z 18016KT 25/02 A299 RMK A01 T02480016  RH  022%=      5-min Rain = 0
KLE1 150039Z 18014KT 25/02 A299 RMK A01 T02480016  RH  022%=      5-min Rain = 0
KLE1 150040Z 18015KT 25/02 A299 RMK A01 T02470016  RH  022%=      5-min Rain = 0
KLE1 150041Z 18015KT 25/02 A299 RMK A01 T02460016  RH  022%=      5-min Rain = 0
KLE1 150042Z 18015KT 25/02 A299 RMK A01 T02450016  RH  022%=      5-min Rain = 0
KLE1 150043Z 18017KT 25/02 A299 RMK A01 T02450017  RH  022%=      5-min Rain = 0
KLE1 150044Z 18015KT 25/02 A299 RMK A01 T02450016  RH  022%=      5-min Rain = 0
KLE1 150045Z 18016G21KT 24/02 A299 RMK A01 T02440016  RH  022%=      5-min Rain = 0
KLE1 150046Z 18014KT 24/02 A299 RMK A01 T02440016  RH  022%=      5-min Rain = 0
KLE1 150047Z 18015KT 24/02 A299 RMK A01 T02430016  RH  023%=      5-min Rain = 0
KLE1 150048Z 19015KT 24/02 A299 RMK A01 T02420016  RH  023%=      5-min Rain = 0
KLE1 150049Z 19015KT 24/02 A299 RMK A01 T02420016  RH  023%=      5-min Rain = 0
KLE1 150050Z 19015KT 24/02 A299 RMK A01 T02420017  RH  023%=      5-min Rain = 0
KLE1 150051Z 19016KT 24/02 A299 RMK A01 T02410016  RH  023%=      5-min Rain = 0
KLE1 150052Z 19014KT 24/02 A299 RMK A01 T02410017  RH  023%=      5-min Rain = 0
KLE1 150053Z 19015KT 24/02 A299 RMK A01 T02400016  RH  023%=      5-min Rain = 0
KLE1 150054Z 19014KT 24/02 A299 RMK A01 T02400016  RH  023%=      5-min Rain = 0
KLE1 150055Z 19014KT 24/02 A299 RMK A01 T02400016  RH  023%=      5-min Rain = 0
KLE1 150056Z 19014KT 24/02 A299 RMK A01 T02390016  RH  023%=      5-min Rain = 0
KLE1 150057Z 19013KT 24/02 A299 RMK A01 T02380016  RH  023%=      5-min Rain = 0
KLE1 150058Z 19014KT 24/02 A299 RMK A01 T02370016  RH  023%=      5-min Rain = 0
KLE1 150059Z 19014KT 24/02 A299 RMK A01 T02360016  RH  024%=      5-min Rain = 0
KLE1 150100Z 19014G19KT 24/02 A299 RMK A01 T02360016  RH  024%=      5-min Rain = 0
KLE1 150101Z 19012KT 24/02 A299 RMK A01 T02360016  RH  024%=      5-min Rain = 0
KLE1 150102Z 19013KT 24/02 A299 RMK A01 T02350016  RH  024%=      5-min Rain = 0
KLE1 150103Z 19013KT 23/02 A299 RMK A01 T02340016  RH  024%=      5-min Rain = 0
KLE1 150104Z 19013KT 23/02 A299 RMK A01 T02340016  RH  024%=      5-min Rain = 0
KLE1 150105Z 19012KT 23/02 A299 RMK A01 T02340016  RH  024%=      5-min Rain = 0
KLE1 150106Z 19013KT 23/02 A299 RMK A01 T02340016  RH  024%=      5-min Rain = 0
KLE1 150107Z 19012KT 23/02 A299 RMK A01 T02330016  RH  024%=      5-min Rain = 0
KLE1 150108Z 19013KT 23/02 A299 RMK A01 T02330016  RH  024%=      5-min Rain = 0
KLE1 150109Z 19013KT 23/02 A299 RMK A01 T02320017  RH  024%=      5-min Rain = 0
KLE1 150110Z 19012KT 23/02 A299 RMK A01 T02320017  RH  024%=      5-min Rain = 0
KLE1 150111Z 19012KT 23/02 A299 RMK A01 T02320017  RH  024%=      5-min Rain = 0
KLE1 150112Z 19011KT 23/02 A299 RMK A01 T02310016  RH  024%=      5-min Rain = 0
KLE1 150113Z 19011KT 23/02 A299 RMK A01 T02290016  RH  024%=      5-min Rain = 0
KLE1 150114Z 19012KT 23/02 A299 RMK A01 T02280016  RH  025%=      5-min Rain = 0
KLE1 150115Z 19012KT 23/02 A299 RMK A01 T02270015  RH  025%=      5-min Rain = 0
KLE1 150116Z 19012KT 23/02 A299 RMK A01 T02260016  RH  025%=      5-min Rain = 0
KLE1 150117Z 19014KT 23/02 A299 RMK A01 T02270016  RH  025%=      5-min Rain = 0
KLE1 150118Z 19014KT 23/02 A299 RMK A01 T02280017  RH  025%=      5-min Rain = 0
KLE1 150119Z 19012KT 23/02 A299 RMK A01 T02290017  RH  025%=      5-min Rain = 0
KLE1 150120Z 19011KT 23/02 A299 RMK A01 T02290017  RH  025%=      5-min Rain = 0
KLE1 150121Z 19011KT 23/02 A299 RMK A01 T02280016  RH  025%=      5-min Rain = 0
KLE1 150122Z 19010KT 23/02 A299 RMK A01 T02270016  RH  025%=      5-min Rain = 0
KLE1 150123Z 19010KT 23/02 A299 RMK A01 T02260015  RH  025%=      5-min Rain = 0
KLE1 150124Z 19010KT 22/02 A299 RMK A01 T02240015  RH  025%=      5-min Rain = 0
KLE1 150125Z 19010KT 22/02 A299 RMK A01 T02230015  RH  025%=      5-min Rain = 0
KLE1 150126Z 19010KT 22/02 A299 RMK A01 T02210015  RH  025%=      5-min Rain = 0
KLE1 150127Z 20010KT 22/02 A299 RMK A01 T02220016  RH  026%=      5-min Rain = 0
KLE1 150128Z 20011KT 22/02 A299 RMK A01 T02230016  RH  026%=      5-min Rain = 0
KLE1 150129Z 20010KT 22/02 A299 RMK A01 T02230016  RH  025%=      5-min Rain = 0
KLE1 150130Z 20011KT 22/02 A299 RMK A01 T02230016  RH  026%=      5-min Rain = 0
KLE1 150131Z 19011KT 22/02 A299 RMK A01 T02230016  RH  026%=      5-min Rain = 0
KLE1 150132Z 19010KT 22/02 A299 RMK A01 T02230016  RH  026%=      5-min Rain = 0
KLE1 150133Z 19010KT 22/02 A299 RMK A01 T02230016  RH  026%=      5-min Rain = 0
KLE1 150134Z 19011KT 22/02 A299 RMK A01 T02220016  RH  026%=      5-min Rain = 0
KLE1 150135Z 19011KT 22/02 A299 RMK A01 T02220017  RH  026%=      5-min Rain = 0
KLE1 150136Z 20011KT 22/02 A299 RMK A01 T02220017  RH  026%=      5-min Rain = 0
KLE1 150137Z 19012KT 22/02 A299 RMK A01 T02220016  RH  026%=      5-min Rain = 0
KLE1 150138Z 19011KT 22/02 A299 RMK A01 T02220016  RH  026%=      5-min Rain = 0
KLE1 150139Z 19011KT 22/02 A299 RMK A01 T02220017  RH  026%=      5-min Rain = 0
KLE1 150140Z 19011KT 22/02 A299 RMK A01 T02210016  RH  026%=      5-min Rain = 0
KLE1 150141Z 19010KT 22/02 A299 RMK A01 T02200016  RH  026%=      5-min Rain = 0
KLE1 150142Z 19010KT 22/02 A299 RMK A01 T02200016  RH  026%=      5-min Rain = 0
KLE1 150143Z 19012KT 22/02 A299 RMK A01 T02200016  RH  026%=      5-min Rain = 0
KLE1 150144Z 19012KT 22/02 A299 RMK A01 T02200017  RH  026%=      5-min Rain = 0
KLE1 150145Z 20011KT 22/02 A299 RMK A01 T02200017  RH  026%=      5-min Rain = 0
KLE1 150146Z 20012KT 22/02 A299 RMK A01 T02210017  RH  026%=      5-min Rain = 0
KLE1 150147Z 20011KT 22/02 A299 RMK A01 T02210017  RH  026%=      5-min Rain = 0
KLE1 150148Z 20011KT 22/02 A299 RMK A01 T02190016  RH  026%=      5-min Rain = 0
KLE1 150149Z 20010KT 22/02 A299 RMK A01 T02180016  RH  026%=      5-min Rain = 0
KLE1 150150Z 20011KT 22/02 A299 RMK A01 T02170016  RH  026%=      5-min Rain = 0
KLE1 150151Z 20011KT 22/02 A299 RMK A01 T02170016  RH  027%=      5-min Rain = 0
KLE1 150152Z 20011KT 22/02 A299 RMK A01 T02170016  RH  026%=      5-min Rain = 0
KLE1 150153Z 20012KT 22/02 A299 RMK A01 T02160016  RH  027%=      5-min Rain = 0
KLE1 150154Z 20012KT 22/02 A299 RMK A01 T02160016  RH  027%=      5-min Rain = 0
KLE1 150155Z 20012KT 22/02 A299 RMK A01 T02160016  RH  027%=      5-min Rain = 0
KLE1 150156Z 20013KT 22/02 A299 RMK A01 T02160016  RH  027%=      5-min Rain = 0
KLE1 150157Z 20013KT 22/02 A2991 RMK A01 T02170017  RH  027%=      5-min Rain = 0
KLE1 150158Z 19013KT 22/02 A2991 RMK A01 T02170017  RH  027%=      5-min Rain = 0
KLE1 150159Z 20012KT 22/02 A2991 RMK A01 T02170016  RH  026%=      5-min Rain = 0
KLE1 150200Z 20012KT 22/02 A2991 RMK A01 T02160016  RH  027%=      5-min Rain = 0
KLE1 150201Z 20011KT 22/02 A2991 RMK A01 T02160016  RH  027%=      5-min Rain = 0
KLE1 150202Z 20011KT 22/02 A2991 RMK A01 T02160017  RH  027%=      5-min Rain = 0
KLE1 150203Z 20010KT 22/02 A2991 RMK A01 T02160016  RH  027%=      5-min Rain = 0
KLE1 150204Z 21009KT 22/02 A2991 RMK A01 T02150016  RH  027%=      5-min Rain = 0
KLE1 150205Z 20010KT 21/02 A2991 RMK A01 T02140016  RH  027%=      5-min Rain = 0
KLE1 150206Z 21008KT 21/02 A2991 RMK A01 T02130015  RH  027%=      5-min Rain = 0
KLE1 150207Z 20009KT 21/02 A2991 RMK A01 T02120015  RH  027%=      5-min Rain = 0
KLE1 150208Z 20010KT 21/02 A2991 RMK A01 T02100015  RH  027%=      5-min Rain = 0
KLE1 150209Z 19010KT 21/02 A2991 RMK A01 T02090015  RH  028%=      5-min Rain = 0
KLE1 150210Z 19010KT 21/02 A2991 RMK A01 T02090015  RH  028%=      5-min Rain = 0
KLE1 150211Z 19011KT 21/02 A2991 RMK A01 T02090015  RH  028%=      5-min Rain = 0
KLE1 150212Z 19012KT 21/02 A2991 RMK A01 T02100016  RH  028%=      5-min Rain = 0
KLE1 150213Z 19011KT 21/02 A2991 RMK A01 T02110016  RH  027%=      5-min Rain = 0
KLE1 150214Z 19012KT 21/02 A2991 RMK A01 T02110016  RH  027%=      5-min Rain = 0
KLE1 150215Z 19011KT 21/02 A2991 RMK A01 T02110016  RH  027%=      5-min Rain = 0
KLE1 150216Z 19011KT 21/02 A2991 RMK A01 T02110016  RH  027%=      5-min Rain = 0
KLE1 150217Z 19011KT 21/02 A2991 RMK A01 T02100016  RH  027%=      5-min Rain = 0
KLE1 150218Z 19011KT 21/02 A2991 RMK A01 T02090016  RH  028%=      5-min Rain = 0
KLE1 150219Z 19010KT 21/02 A2991 RMK A01 T02090016  RH  028%=      5-min Rain = 0
KLE1 150220Z 19011KT 21/02 A2991 RMK A01 T02100016  RH  028%=      5-min Rain = 0
KLE1 150221Z 19011KT 21/02 A2991 RMK A01 T02090016  RH  028%=      5-min Rain = 0
KLE1 150222Z 19010KT 21/02 A2991 RMK A01 T02080016  RH  028%=      5-min Rain = 0
KLE1 150223Z 20010KT 21/02 A2991 RMK A01 T02080016  RH  028%=      5-min Rain = 0
KLE1 150224Z 19010KT 21/02 A2991 RMK A01 T02080015  RH  028%=      5-min Rain = 0
KLE1 150225Z 19010KT 21/02 A2991 RMK A01 T02070016  RH  028%=      5-min Rain = 0
KLE1 150226Z 20010KT 21/02 A2991 RMK A01 T02060016  RH  028%=      5-min Rain = 0
KLE1 150227Z 20009KT 21/02 A2991 RMK A01 T02060016  RH  028%=      5-min Rain = 0
KLE1 150228Z 19009KT 21/02 A2991 RMK A01 T02050016  RH  028%=      5-min Rain = 0
KLE1 150229Z 19010KT 20/02 A2991 RMK A01 T02040015  RH  028%=      5-min Rain = 0
KLE1 150230Z 19009KT 20/02 A2991 RMK A01 T02040015  RH  029%=      5-min Rain = 0
KLE1 150231Z 20009KT 20/02 A2991 RMK A01 T02030016  RH  029%=      5-min Rain = 0
KLE1 150232Z 20009KT 20/02 A2991 RMK A01 T02030015  RH  029%=      5-min Rain = 0
KLE1 150233Z 20008KT 20/02 A2991 RMK A01 T02020015  RH  029%=      5-min Rain = 0
KLE1 150234Z 19008KT 20/02 A2991 RMK A01 T02010015  RH  029%=      5-min Rain = 0
KLE1 150235Z 20008KT 20/02 A2991 RMK A01 T02020016  RH  029%=      5-min Rain = 0
KLE1 150236Z 20008KT 20/02 A2991 RMK A01 T02010015  RH  029%=      5-min Rain = 0
KLE1 150237Z 19008KT 20/02 A2991 RMK A01 T02000015  RH  029%=      5-min Rain = 0
KLE1 150238Z 19008KT 20/01 A2991 RMK A01 T01990014  RH  029%=      5-min Rain = 0
KLE1 150239Z 19009KT 20/01 A2991 RMK A01 T01980014  RH  029%=      5-min Rain = 0
KLE1 150240Z 19009KT 20/02 A2991 RMK A01 T01980015  RH  030%=      5-min Rain = 0
KLE1 150241Z 19008KT 20/02 A2991 RMK A01 T01980015  RH  030%=      5-min Rain = 0
KLE1 150242Z 20008KT 20/01 A2991 RMK A01 T01970014  RH  030%=      5-min Rain = 0
KLE1 150243Z 19009KT 20/02 A2991 RMK A01 T01960015  RH  030%=      5-min Rain = 0
KLE1 150244Z 19010KT 20/02 A2991 RMK A01 T01960015  RH  030%=      5-min Rain = 0
KLE1 150245Z 19009KT 20/02 A2991 RMK A01 T01960015  RH  030%=      5-min Rain = 0
KLE1 150246Z 20009KT 20/02 A2991 RMK A01 T01960015  RH  030%=      5-min Rain = 0
KLE1 150247Z 20010KT 20/02 A2991 RMK A01 T01960015  RH  030%=      5-min Rain = 0
KLE1 150248Z 20009KT 20/02 A2992 RMK A01 T01970015  RH  030%=      5-min Rain = 0
KLE1 150249Z 20009KT 20/02 A2992 RMK A01 T01970015  RH  030%=      5-min Rain = 0
KLE1 150250Z 20009KT 20/02 A2992 RMK A01 T01980016  RH  030%=      5-min Rain = 0
KLE1 150251Z 20008KT 20/02 A2992 RMK A01 T01990016  RH  029%=      5-min Rain = 0
KLE1 150252Z 20008KT 20/02 A2992 RMK A01 T02000016  RH  029%=      5-min Rain = 0
KLE1 150253Z 20008KT 20/02 A2992 RMK A01 T02000016  RH  029%=      5-min Rain = 0
KLE1 150254Z 21009KT 20/02 A2992 RMK A01 T02010016  RH  029%=      5-min Rain = 0
KLE1 150255Z 21008KT 20/02 A2992 RMK A01 T02020016  RH  029%=      5-min Rain = 0
KLE1 150256Z 21008KT 20/02 A2992 RMK A01 T02040016  RH  029%=      5-min Rain = 0
KLE1 150257Z 21008KT 20/02 A2992 RMK A01 T02040016  RH  029%=      5-min Rain = 0
KLE1 150258Z 21008KT 21/02 A2991 RMK A01 T02050016  RH  028%=      5-min Rain = 0
KLE1 150259Z 21008KT 21/02 A2992 RMK A01 T02050015  RH  028%=      5-min Rain = 0
KLE1 150300Z 21008KT 20/02 A2992 RMK A01 T02040015  RH  028%=      5-min Rain = 0
KLE1 150301Z 21008KT 20/02 A2992 RMK A01 T02040015  RH  028%=      5-min Rain = 0
KLE1 150302Z 21008KT 20/02 A2992 RMK A01 T02040015  RH  029%=      5-min Rain = 0
KLE1 150303Z 21008KT 20/02 A2992 RMK A01 T02030015  RH  029%=      5-min Rain = 0
KLE1 150304Z 21008KT 20/02 A2992 RMK A01 T02030015  RH  029%=      5-min Rain = 0
KLE1 150305Z 21008KT 20/02 A2992 RMK A01 T02030015  RH  029%=      5-min Rain = 0
KLE1 150306Z 21009KT 20/02 A2992 RMK A01 T02020015  RH  029%=      5-min Rain = 0
KLE1 150307Z 21008KT 20/02 A2992 RMK A01 T02040015  RH  028%=      5-min Rain = 0
KLE1 150308Z 21010KT 21/02 A2992 RMK A01 T02050015  RH  028%=      5-min Rain = 0
KLE1 150309Z 21009KT 21/02 A2992 RMK A01 T02070015  RH  028%=      5-min Rain = 0
KLE1 150310Z 21009KT 21/01 A2992 RMK A01 T02070014  RH  028%=      5-min Rain = 0
KLE1 150311Z 21008KT 21/01 A2992 RMK A01 T02080014  RH  028%=      5-min Rain = 0
KLE1 150312Z 21009KT 21/01 A2992 RMK A01 T02080014  RH  027%=      5-min Rain = 0
KLE1 150313Z 21009KT 21/01 A2992 RMK A01 T02090014  RH  027%=      5-min Rain = 0
KLE1 150314Z 21010KT 21/01 A2992 RMK A01 T02110014  RH  027%=      5-min Rain = 0
KLE1 150315Z 21010KT 21/01 A2992 RMK A01 T02120013  RH  027%=      5-min Rain = 0
KLE1 150316Z 21010KT 21/01 A2992 RMK A01 T02130013  RH  026%=      5-min Rain = 0
KLE1 150317Z 21010KT 21/01 A2992 RMK A01 T02140013  RH  026%=      5-min Rain = 0
KLE1 150318Z 21010KT 22/01 A2992 RMK A01 T02150012  RH  026%=      5-min Rain = 0
KLE1 150319Z 21009KT 22/01 A2992 RMK A01 T02150013  RH  026%=      5-min Rain = 0
KLE1 150320Z 22010KT 22/01 A2992 RMK A01 T02150012  RH  026%=      5-min Rain = 0
KLE1 150321Z 21011KT 22/01 A2992 RMK A01 T02160012  RH  026%=      5-min Rain = 0
KLE1 150322Z 21010KT 22/01 A2992 RMK A01 T02170012  RH  026%=      5-min Rain = 0
KLE1 150323Z 21010KT 22/01 A2992 RMK A01 T02180012  RH  026%=      5-min Rain = 0
KLE1 150324Z 21010KT 22/01 A2992 RMK A01 T02180012  RH  025%=      5-min Rain = 0
KLE1 150325Z 21011KT 22/01 A2992 RMK A01 T02190012  RH  025%=      5-min Rain = 0
KLE1 150326Z 21010KT 22/01 A2992 RMK A01 T02190012  RH  025%=      5-min Rain = 0
KLE1 150327Z 21010KT 22/01 A2992 RMK A01 T02190012  RH  025%=      5-min Rain = 0
KLE1 150328Z 21011KT 22/01 A2992 RMK A01 T02200012  RH  025%=      5-min Rain = 0
KLE1 150329Z 21011KT 22/01 A2992 RMK A01 T02190011  RH  025%=      5-min Rain = 0
KLE1 150330Z 21010G15KT 22/01 A2992 RMK A01 T02200012  RH  025%=      5-min Rain = 0
KLE1 150331Z 21010KT 22/01 A2992 RMK A01 T02210011  RH  025%=      5-min Rain = 0
KLE1 150332Z 21012KT 22/01 A2992 RMK A01 T02210011  RH  025%=      5-min Rain = 0
KLE1 150333Z 21011KT 22/01 A2992 RMK A01 T02220011  RH  025%=      5-min Rain = 0
KLE1 150334Z 21012KT 22/01 A2992 RMK A01 T02220011  RH  025%=      5-min Rain = 0
KLE1 150335Z 21011KT 22/01 A2992 RMK A01 T02220011  RH  025%=      5-min Rain = 0
KLE1 150336Z 21010KT 22/01 A2993 RMK A01 T02220011  RH  025%=      5-min Rain = 0
KLE1 150337Z 22011KT 22/01 A2993 RMK A01 T02220011  RH  025%=      5-min Rain = 0
KLE1 150338Z 22011KT 22/01 A2993 RMK A01 T02220011  RH  025%=      5-min Rain = 0
KLE1 150339Z 22011KT 22/01 A2993 RMK A01 T02220011  RH  025%=      5-min Rain = 0
KLE1 150340Z 22011KT 22/01 A2993 RMK A01 T02220011  RH  025%=      5-min Rain = 0
KLE1 150341Z 22010KT 22/01 A2993 RMK A01 T02220011  RH  025%=      5-min Rain = 0
KLE1 150342Z 22010KT 22/01 A2992 RMK A01 T02220010  RH  025%=      5-min Rain = 0
KLE1 150343Z 22008KT 22/01 A2992 RMK A01 T02220010  RH  025%=      5-min Rain = 0
KLE1 150344Z 23009KT 22/01 A2992 RMK A01 T02210010  RH  025%=      5-min Rain = 0
KLE1 150345Z 23008KT 22/01 A2993 RMK A01 T02210010  RH  025%=      5-min Rain = 0
KLE1 150346Z 23008KT 22/01 A2993 RMK A01 T02210010  RH  025%=      5-min Rain = 0
KLE1 150347Z 23009KT 22/01 A2993 RMK A01 T02210010  RH  025%=      5-min Rain = 0
KLE1 150348Z 23008KT 22/01 A2992 RMK A01 T02200009  RH  025%=      5-min Rain = 0
KLE1 150349Z 23009KT 22/01 A2992 RMK A01 T02200009  RH  025%=      5-min Rain = 0
KLE1 150350Z 23010KT 22/01 A2992 RMK A01 T02190009  RH  025%=      5-min Rain = 0
KLE1 150351Z 23009KT 22/01 A2992 RMK A01 T02190009  RH  025%=      5-min Rain = 0
KLE1 150352Z 23008KT 22/01 A2993 RMK A01 T02190009  RH  025%=      5-min Rain = 0
KLE1 150353Z 23008KT 22/01 A2993 RMK A01 T02180009  RH  025%=      5-min Rain = 0
KLE1 150354Z 23008KT 22/01 A2993 RMK A01 T02170008  RH  025%=      5-min Rain = 0
KLE1 150355Z 23007KT 22/01 A2993 RMK A01 T02160008  RH  025%=      5-min Rain = 0
KLE1 150356Z 23008KT 22/01 A2993 RMK A01 T02150008  RH  025%=      5-min Rain = 0
KLE1 150357Z 22008KT 21/01 A2993 RMK A01 T02140008  RH  025%=      5-min Rain = 0
KLE1 150358Z 22008KT 21/01 A2993 RMK A01 T02130008  RH  026%=      5-min Rain = 0
KLE1 150359Z 22008KT 21/01 A2993 RMK A01 T02120008  RH  026%=      5-min Rain = 0
KLE1 150400Z 22008KT 21/01 A2993 RMK A01 T02120008  RH  026%=      5-min Rain = 0
KLE1 150401Z 22007KT 21/01 A2993 RMK A01 T02110008  RH  026%=      5-min Rain = 0
KLE1 150402Z 22008KT 21/01 A2993 RMK A01 T02110008  RH  026%=      5-min Rain = 0
KLE1 150403Z 22007KT 21/01 A2993 RMK A01 T02100007  RH  026%=      5-min Rain = 0
KLE1 150404Z 22007KT 21/01 A2993 RMK A01 T02090007  RH  026%=      5-min Rain = 0
KLE1 150405Z 22007KT 21/01 A2993 RMK A01 T02080007  RH  026%=      5-min Rain = 0
KLE1 150406Z 22007KT 21/01 A2993 RMK A01 T02080007  RH  026%=      5-min Rain = 0
KLE1 150407Z 22007KT 21/01 A2993 RMK A01 T02070006  RH  026%=      5-min Rain = 0
KLE1 150408Z 23007KT 21/01 A2993 RMK A01 T02060006  RH  026%=      5-min Rain = 0
KLE1 150409Z 23007KT 21/01 A2993 RMK A01 T02050007  RH  027%=      5-min Rain = 0
KLE1 150410Z 23007KT 21/01 A2993 RMK A01 T02050007  RH  027%=      5-min Rain = 0
KLE1 150411Z 23007KT 20/01 A2993 RMK A01 T02040006  RH  027%=      5-min Rain = 0
KLE1 150412Z 23007KT 20/01 A2993 RMK A01 T02030006  RH  027%=      5-min Rain = 0
KLE1 150413Z 23006KT 20/01 A2993 RMK A01 T02030006  RH  027%=      5-min Rain = 0
KLE1 150414Z 23006KT 20/01 A2993 RMK A01 T02020006  RH  027%=      5-min Rain = 0
KLE1 150415Z 23006KT 20/01 A2993 RMK A01 T02010005  RH  027%=      5-min Rain = 0
KLE1 150416Z 23006KT 20/01 A2993 RMK A01 T02000005  RH  027%=      5-min Rain = 0
KLE1 150417Z 23006KT 20/01 A2993 RMK A01 T01990005  RH  027%=      5-min Rain = 0
KLE1 150418Z 23005KT 20/01 A2993 RMK A01 T01990005  RH  027%=      5-min Rain = 0
KLE1 150419Z 24005KT 20/01 A2993 RMK A01 T01990005  RH  027%=      5-min Rain = 0
KLE1 150420Z 25004KT 20/01 A2993 RMK A01 T01990005  RH  027%=      5-min Rain = 0
KLE1 150421Z 25004KT 20/01 A2993 RMK A01 T01990005  RH  027%=      5-min Rain = 0
KLE1 150422Z 27004KT 20/01 A2993 RMK A01 T01980005  RH  027%=      5-min Rain = 0
KLE1 150423Z 26004KT 20/01 A2993 RMK A01 T01990005  RH  027%=      5-min Rain = 0
KLE1 150424Z 27003KT 20/01 A2993 RMK A01 T01980005  RH  027%=      5-min Rain = 0
KLE1 150425Z 27004KT 20/01 A2993 RMK A01 T01980005  RH  027%=      5-min Rain = 0
KLE1 150426Z 30003KT 20/01 A2993 RMK A01 T01980005  RH  027%=      5-min Rain = 0
KLE1 150427Z 30004KT 20/00 A2993 RMK A01 T01980004  RH  027%=      5-min Rain = 0
KLE1 150428Z 30004KT 20/00 A2993 RMK A01 T01960004  RH  028%=      5-min Rain = 0
KLE1 150429Z 30004KT 20/00 A2993 RMK A01 T01950004  RH  028%=      5-min Rain = 0
KLE1 150430Z 30004KT 19/00 A2993 RMK A01 T01940004  RH  028%=      5-min Rain = 0
KLE1 150431Z 30004KT 19/00 A2993 RMK A01 T01940004  RH  028%=      5-min Rain = 0
KLE1 150432Z 29004KT 19/00 A2993 RMK A01 T01930003  RH  028%=      5-min Rain = 0
KLE1 150433Z 30003KT 19/00 A2993 RMK A01 T01930004  RH  028%=      5-min Rain = 0
KLE1 150434Z 29003KT 19/00 A2993 RMK A01 T01930003  RH  028%=      5-min Rain = 0
KLE1 150435Z 29004KT 19/00 A2993 RMK A01 T01930003  RH  028%=      5-min Rain = 0
KLE1 150436Z 29004KT 19/00 A2993 RMK A01 T01920002  RH  028%=      5-min Rain = 0
KLE1 150437Z 29004KT 19/00 A2993 RMK A01 T01910002  RH  028%=      5-min Rain = 0
KLE1 150438Z 28005KT 19/00 A2993 RMK A01 T01910002  RH  028%=      5-min Rain = 0
KLE1 150439Z 27005KT 19/00 A2993 RMK A01 T01910002  RH  028%=      5-min Rain = 0
KLE1 150440Z 28004KT 19/00 A2993 RMK A01 T01920003  RH  028%=      5-min Rain = 0
KLE1 150441Z 27004KT 19/00 A2993 RMK A01 T01920002  RH  028%=      5-min Rain = 0
KLE1 150442Z 27006KT 19/00 A2993 RMK A01 T01930002  RH  028%=      5-min Rain = 0
KLE1 150443Z 26006KT 19/00 A2993 RMK A01 T01930002  RH  028%=      5-min Rain = 0
KLE1 150444Z 26005KT 19/00 A2993 RMK A01 T01930002  RH  028%=      5-min Rain = 0
KLE1 150445Z 26006KT 19/00 A2993 RMK A01 T01930002  RH  028%=      5-min Rain = 0
KLE1 150446Z 26005KT 19/00 A2993 RMK A01 T01940002  RH  028%=      5-min Rain = 0
KLE1 150447Z 25005KT 19/00 A2993 RMK A01 T01940002  RH  028%=      5-min Rain = 0
KLE1 150448Z 24004KT 20/00 A2993 RMK A01 T01950002  RH  027%=      5-min Rain = 0
KLE1 150449Z 24004KT 20/00 A2993 RMK A01 T01960002  RH  027%=      5-min Rain = 0
KLE1 150450Z 25005KT 20/00 A2993 RMK A01 T01960002  RH  027%=      5-min Rain = 0
KLE1 150451Z 25005KT 20/00 A2993 RMK A01 T01960002  RH  027%=      5-min Rain = 0
KLE1 150452Z 25005KT 20/00 A2993 RMK A01 T01960003  RH  027%=      5-min Rain = 0
KLE1 150453Z 25006KT 20/00 A2993 RMK A01 T01960003  RH  027%=      5-min Rain = 0
KLE1 150454Z 25005KT 20/00 A2993 RMK A01 T01970003  RH  027%=      5-min Rain = 0
KLE1 150455Z 25005KT 20/00 A2993 RMK A01 T01970003  RH  027%=      5-min Rain = 0
KLE1 150456Z 25005KT 20/00 A2993 RMK A01 T01960002  RH  027%=      5-min Rain = 0
KLE1 150457Z 25005KT 20/00 A2993 RMK A01 T01960002  RH  027%=      5-min Rain = 0
KLE1 150458Z 26006KT 20/00 A2993 RMK A01 T01960002  RH  027%=      5-min Rain = 0
KLE1 150459Z 26006KT 20/00 A2993 RMK A01 T01950001  RH  027%=      5-min Rain = 0
KLE1 150500Z 25006KT 19/00 A2993 RMK A01 T01930001  RH  027%=      5-min Rain = 0
KLE1 150501Z 25005KT 19/00 A2992 RMK A01 T01920000  RH  028%=      5-min Rain = 0
KLE1 150502Z 25005KT 19/00 A2992 RMK A01 T019100-0  RH  028%=      5-min Rain = 0
KLE1 150503Z 25006KT 19/00 A2992 RMK A01 T019000-0  RH  028%=      5-min Rain = 0
KLE1 150504Z 26006KT 19/00 A2992 RMK A01 T018900-0  RH  028%=      5-min Rain = 0
KLE1 150505Z 26006KT 19/M00 A2992 RMK A01 T01881001  RH  028%=      5-min Rain = 0
KLE1 150506Z 25005KT 19/M00 A2992 RMK A01 T01871001  RH  028%=      5-min Rain = 0
KLE1 150507Z 25005KT 19/M00 A2992 RMK A01 T01861001  RH  028%=      5-min Rain = 0
KLE1 150508Z 24006KT 19/M00 A2992 RMK A01 T01851001  RH  028%=      5-min Rain = 0
KLE1 150509Z 24005KT 18/M00 A2992 RMK A01 T01841001  RH  029%=      5-min Rain = 0
KLE1 150510Z 24005KT 18/M00 A2993 RMK A01 T01841001  RH  029%=      5-min Rain = 0
KLE1 150511Z 24005KT 18/M00 A2993 RMK A01 T01841001  RH  029%=      5-min Rain = 0
KLE1 150512Z 24005KT 18/M00 A2993 RMK A01 T01841001  RH  029%=      5-min Rain = 0
KLE1 150513Z 24005KT 18/00 A2992 RMK A01 T018400-0  RH  029%=      5-min Rain = 0
KLE1 150514Z 24005KT 19/00 A2992 RMK A01 T018500-0  RH  029%=      5-min Rain = 0
KLE1 150515Z 24005KT 19/00 A2992 RMK A01 T018500-0  RH  029%=      5-min Rain = 0
KLE1 150516Z 23005KT 19/M00 A2992 RMK A01 T01851001  RH  029%=      5-min Rain = 0
KLE1 150517Z 23006KT 19/00 A2992 RMK A01 T018500-0  RH  029%=      5-min Rain = 0
KLE1 150518Z 24006KT 19/00 A2992 RMK A01 T018500-0  RH  029%=      5-min Rain = 0
KLE1 150519Z 23007KT 19/00 A2992 RMK A01 T018500-0  RH  029%=      5-min Rain = 0
KLE1 150520Z 24005KT 19/00 A2992 RMK A01 T018500-0  RH  029%=      5-min Rain = 0
KLE1 150521Z 25005KT 19/M00 A2992 RMK A01 T01851001  RH  029%=      5-min Rain = 0
KLE1 150522Z 25005KT 19/M00 A2992 RMK A01 T01851001  RH  029%=      5-min Rain = 0
KLE1 150523Z 25005KT 18/M00 A2992 RMK A01 T01841001  RH  029%=      5-min Rain = 0
KLE1 150524Z 25005KT 18/M00 A2992 RMK A01 T01831001  RH  029%=      5-min Rain = 0
KLE1 150525Z 26006KT 18/M00 A2992 RMK A01 T01831001  RH  029%=      5-min Rain = 0
KLE1 150526Z 26006KT 18/M00 A2992 RMK A01 T01831001  RH  029%=      5-min Rain = 0
KLE1 150527Z 26006KT 18/M00 A2992 RMK A01 T01831001  RH  029%=      5-min Rain = 0
KLE1 150528Z 26006KT 18/M00 A2992 RMK A01 T01831001  RH  029%=      5-min Rain = 0
KLE1 150529Z 26006KT 18/M00 A2992 RMK A01 T01841001  RH  029%=      5-min Rain = 0
KLE1 150530Z 25007KT 18/M00 A2992 RMK A01 T01841001  RH  029%=      5-min Rain = 0
KLE1 150531Z 25007KT 19/00 A2992 RMK A01 T018500-0  RH  029%=      5-min Rain = 0
KLE1 150532Z 25008KT 19/00 A2992 RMK A01 T018500-0  RH  029%=      5-min Rain = 0
KLE1 150533Z 26008KT 19/00 A2992 RMK A01 T018600-0  RH  029%=      5-min Rain = 0
KLE1 150534Z 30006KT 19/M00 A2993 RMK A01 T01861001  RH  028%=      5-min Rain = 0
KLE1 150535Z 31005KT 19/M00 A2993 RMK A01 T01851002  RH  028%=      5-min Rain = 0
KLE1 150536Z 32005KT 18/M00 A2993 RMK A01 T01821002  RH  029%=      5-min Rain = 0
KLE1 150537Z 33006KT 18/M00 A2993 RMK A01 T01811003  RH  029%=      5-min Rain = 0
KLE1 150538Z 33006KT 18/M00 A2993 RMK A01 T01791004  RH  029%=      5-min Rain = 0
KLE1 150539Z 32005KT 18/M01 A2993 RMK A01 T01761006  RH  029%=      5-min Rain = 0
KLE1 150540Z 33005KT 17/M01 A2993 RMK A01 T01731006  RH  030%=      5-min Rain = 0
KLE1 150541Z 33005KT 17/M01 A2993 RMK A01 T01711006  RH  030%=      5-min Rain = 0
KLE1 150542Z 30005KT 17/M01 A2993 RMK A01 T01691006  RH  030%=      5-min Rain = 0
KLE1 150543Z 30005KT 17/M01 A2993 RMK A01 T01681005  RH  031%=      5-min Rain = 0
KLE1 150544Z 31004KT 17/M00 A2993 RMK A01 T01701003  RH  031%=      5-min Rain = 0
KLE1 150545Z 32005KT 17/M00 A2993 RMK A01 T01721003  RH  030%=      5-min Rain = 0
KLE1 150546Z 32005KT 17/M00 A2993 RMK A01 T01731003  RH  030%=      5-min Rain = 0
KLE1 150547Z 30007KT 17/M00 A2993 RMK A01 T01721004  RH  030%=      5-min Rain = 0
KLE1 150548Z 29006KT 17/M00 A2993 RMK A01 T01731002  RH  030%=      5-min Rain = 0
KLE1 150549Z 28005KT 18/M00 A2993 RMK A01 T01761001  RH  030%=      5-min Rain = 0
KLE1 150550Z 28006KT 18/M00 A2993 RMK A01 T01781001  RH  030%=      5-min Rain = 0
KLE1 150551Z 28006KT 18/00 A2993 RMK A01 T018000-0  RH  030%=      5-min Rain = 0
KLE1 150552Z 28005KT 18/00 A2993 RMK A01 T01820000  RH  029%=      5-min Rain = 0
KLE1 150553Z 27004KT 18/00 A2993 RMK A01 T018300-0  RH  029%=      5-min Rain = 0
KLE1 150554Z 27006KT 18/M00 A2993 RMK A01 T01831001  RH  029%=      5-min Rain = 0
KLE1 150555Z 27004KT 18/00 A2993 RMK A01 T01840000  RH  029%=      5-min Rain = 0
KLE1 150556Z 27004KT 18/M00 A2993 RMK A01 T01841001  RH  029%=      5-min Rain = 0
KLE1 150557Z 26004KT 18/M00 A2993 RMK A01 T01841001  RH  029%=      5-min Rain = 0
KLE1 150558Z 26005KT 18/M00 A2993 RMK A01 T01831001  RH  029%=      5-min Rain = 0
KLE1 150559Z 26004KT 18/M00 A2993 RMK A01 T01841001  RH  029%=      5-min Rain = 0

Page generated in 0.0321 seconds.